<?xml version="1.0" encoding="UTF-8" standalone="no" ?>
<gpx xmlns="http://www.topografix.com/GPX/1/1" xmlns:xsi="http://www.w3.org/2001/XMLSchema-instance" xsi:schemaLocation="http://www.topografix.com/GPX/1/1 http://www.topografix.com/GPX/1/1/gpx.xsd" version="1.1" creator="VisuGPX - https://www.visugpx.com">
  <metadata>
    <name>76km Chavagnes Les Redoux</name>
    <desc><![CDATA[Les Herbiers // L’Aurière
Mesnard  la Barotière
Vendrennes
Mouchamps
La Tranchais
St Vincent  Sterlanges
St Germain de Prinçais
Puybelliard
Sigournais
Chavagnes les Redoux
Monsireignes
St Prouant
Le Boupère direction St Michel
A/g Bois-Sorin // Les Brosses
La Burlandière // Bel-Air
La Chambaudière
St Mars la Réorthe
La Cossonnière
Les Herbiers

]]></desc>
  </metadata>
  <trk>
    <name><![CDATA[76k Chavagnes Les Redoux cth85.com]]></name>
    <extensions>
      <line xmlns="http://www.topografix.com/GPX/gpx_style/0/2">
        <color>0000FF</color>
        <width>4</width>
      </line>
    </extensions>
    <trkseg>
      <trkpt lat="46.86353" lon="-1.00595">
        <ele>119</ele>
        <time>2010-01-01T00:01:46Z</time>
      </trkpt>
      <trkpt lat="46.86389" lon="-1.00557">
        <ele>119</ele>
        <time>2010-01-01T00:02:00.452Z</time>
      </trkpt>
      <trkpt lat="46.86404" lon="-1.00558">
        <ele>119.1</ele>
        <time>2010-01-01T00:02:05.236Z</time>
      </trkpt>
      <trkpt lat="46.86426" lon="-1.00561">
        <ele>118.9</ele>
        <time>2010-01-01T00:02:12.667Z</time>
      </trkpt>
      <trkpt lat="46.8646" lon="-1.00563">
        <ele>117.7</ele>
        <time>2010-01-01T00:02:23.523Z</time>
      </trkpt>
      <trkpt lat="46.86492" lon="-1.00566">
        <ele>117.3</ele>
        <time>2010-01-01T00:02:33.924Z</time>
      </trkpt>
      <trkpt lat="46.86529" lon="-1.0058">
        <ele>114.3</ele>
        <time>2010-01-01T00:02:46.479Z</time>
      </trkpt>
      <trkpt lat="46.86556" lon="-1.00599">
        <ele>114.6</ele>
        <time>2010-01-01T00:02:56.186Z</time>
      </trkpt>
      <trkpt lat="46.86577" lon="-1.00614">
        <ele>113.6</ele>
        <time>2010-01-01T00:03:03.762Z</time>
      </trkpt>
      <trkpt lat="46.86644" lon="-1.0064">
        <ele>111</ele>
        <time>2010-01-01T00:03:26.360Z</time>
      </trkpt>
      <trkpt lat="46.86695" lon="-1.00654">
        <ele>110</ele>
        <time>2010-01-01T00:03:43.204Z</time>
      </trkpt>
      <trkpt lat="46.8671" lon="-1.00662">
        <ele>110</ele>
        <time>2010-01-01T00:03:48.564Z</time>
      </trkpt>
      <trkpt lat="46.86723" lon="-1.0067">
        <ele>110</ele>
        <time>2010-01-01T00:03:52.990Z</time>
      </trkpt>
      <trkpt lat="46.86697" lon="-1.00684">
        <ele>110</ele>
        <time>2010-01-01T00:04:01.789Z</time>
      </trkpt>
      <trkpt lat="46.86657" lon="-1.00709">
        <ele>111.4</ele>
        <time>2010-01-01T00:04:16.054Z</time>
      </trkpt>
      <trkpt lat="46.86609" lon="-1.0075">
        <ele>113.1</ele>
        <time>2010-01-01T00:04:34.018Z</time>
      </trkpt>
      <trkpt lat="46.86551" lon="-1.00809">
        <ele>115.1</ele>
        <time>2010-01-01T00:04:57.113Z</time>
      </trkpt>
      <trkpt lat="46.86512" lon="-1.00846">
        <ele>115.7</ele>
        <time>2010-01-01T00:05:12.096Z</time>
      </trkpt>
      <trkpt lat="46.86483" lon="-1.00875">
        <ele>116.9</ele>
        <time>2010-01-01T00:05:23.607Z</time>
      </trkpt>
      <trkpt lat="46.86446" lon="-1.0091">
        <ele>117.9</ele>
        <time>2010-01-01T00:05:37.828Z</time>
      </trkpt>
      <trkpt lat="46.86427" lon="-1.00932">
        <ele>118.3</ele>
        <time>2010-01-01T00:05:45.822Z</time>
      </trkpt>
      <trkpt lat="46.86408" lon="-1.00961">
        <ele>118.7</ele>
        <time>2010-01-01T00:05:54.686Z</time>
      </trkpt>
      <trkpt lat="46.86398" lon="-1.00988">
        <ele>118.8</ele>
        <time>2010-01-01T00:06:01.624Z</time>
      </trkpt>
      <trkpt lat="46.864" lon="-1.00994">
        <ele>118.7</ele>
        <time>2010-01-01T00:06:02.956Z</time>
      </trkpt>
      <trkpt lat="46.86406" lon="-1.01003">
        <ele>118.4</ele>
        <time>2010-01-01T00:06:05.739Z</time>
      </trkpt>
      <trkpt lat="46.86403" lon="-1.01016">
        <ele>118.5</ele>
        <time>2010-01-01T00:06:08.720Z</time>
      </trkpt>
      <trkpt lat="46.86395" lon="-1.01015">
        <ele>118.8</ele>
        <time>2010-01-01T00:06:11.225Z</time>
      </trkpt>
      <trkpt lat="46.86387" lon="-1.01015">
        <ele>119</ele>
        <time>2010-01-01T00:06:13.850Z</time>
      </trkpt>
      <trkpt lat="46.86382" lon="-1.01039">
        <ele>119</ele>
        <time>2010-01-01T00:06:19.474Z</time>
      </trkpt>
      <trkpt lat="46.86375" lon="-1.01094">
        <ele>118.3</ele>
        <time>2010-01-01T00:06:31.898Z</time>
      </trkpt>
      <trkpt lat="46.86364" lon="-1.01191">
        <ele>118.1</ele>
        <time>2010-01-01T00:06:53.743Z</time>
      </trkpt>
      <trkpt lat="46.86359" lon="-1.01217">
        <ele>118</ele>
        <time>2010-01-01T00:06:59.821Z</time>
      </trkpt>
      <trkpt lat="46.86349" lon="-1.01231">
        <ele>118</ele>
        <time>2010-01-01T00:07:04.378Z</time>
      </trkpt>
      <trkpt lat="46.86347" lon="-1.01248">
        <ele>118</ele>
        <time>2010-01-01T00:07:08.106Z</time>
      </trkpt>
      <trkpt lat="46.86337" lon="-1.01254">
        <ele>117.9</ele>
        <time>2010-01-01T00:07:11.849Z</time>
      </trkpt>
      <trkpt lat="46.86327" lon="-1.01259">
        <ele>117.7</ele>
        <time>2010-01-01T00:07:15.171Z</time>
      </trkpt>
      <trkpt lat="46.86324" lon="-1.01281">
        <ele>116.9</ele>
        <time>2010-01-01T00:07:20.092Z</time>
      </trkpt>
      <trkpt lat="46.86313" lon="-1.01371">
        <ele>116.5</ele>
        <time>2010-01-01T00:07:40.527Z</time>
      </trkpt>
      <trkpt lat="46.86302" lon="-1.01457">
        <ele>116.9</ele>
        <time>2010-01-01T00:07:59.969Z</time>
      </trkpt>
      <trkpt lat="46.8629" lon="-1.01526">
        <ele>116.4</ele>
        <time>2010-01-01T00:08:15.708Z</time>
      </trkpt>
      <trkpt lat="46.86284" lon="-1.0157">
        <ele>116.2</ele>
        <time>2010-01-01T00:08:25.752Z</time>
      </trkpt>
      <trkpt lat="46.8629" lon="-1.0158">
        <ele>116.4</ele>
        <time>2010-01-01T00:08:28.592Z</time>
      </trkpt>
      <trkpt lat="46.86293" lon="-1.01592">
        <ele>116.7</ele>
        <time>2010-01-01T00:08:31.496Z</time>
      </trkpt>
      <trkpt lat="46.86285" lon="-1.01604">
        <ele>116.8</ele>
        <time>2010-01-01T00:08:35.042Z</time>
      </trkpt>
      <trkpt lat="46.86276" lon="-1.016">
        <ele>116.5</ele>
        <time>2010-01-01T00:08:38.401Z</time>
      </trkpt>
      <trkpt lat="46.86273" lon="-1.01588">
        <ele>115.9</ele>
        <time>2010-01-01T00:08:41.306Z</time>
      </trkpt>
      <trkpt lat="46.86257" lon="-1.01583">
        <ele>115.2</ele>
        <time>2010-01-01T00:08:46.524Z</time>
      </trkpt>
      <trkpt lat="46.86238" lon="-1.01578">
        <ele>115</ele>
        <time>2010-01-01T00:08:52.605Z</time>
      </trkpt>
      <trkpt lat="46.86226" lon="-1.0158">
        <ele>115</ele>
        <time>2010-01-01T00:08:56.808Z</time>
      </trkpt>
      <trkpt lat="46.86216" lon="-1.0159">
        <ele>114.8</ele>
        <time>2010-01-01T00:09:00.749Z</time>
      </trkpt>
      <trkpt lat="46.86191" lon="-1.01623">
        <ele>114.5</ele>
        <time>2010-01-01T00:09:11.488Z</time>
      </trkpt>
      <trkpt lat="46.8615" lon="-1.01676">
        <ele>113.4</ele>
        <time>2010-01-01T00:09:29.405Z</time>
      </trkpt>
      <trkpt lat="46.86141" lon="-1.01692">
        <ele>113.1</ele>
        <time>2010-01-01T00:09:34Z</time>
      </trkpt>
      <trkpt lat="46.86139" lon="-1.01722">
        <ele>113</ele>
        <time>2010-01-01T00:09:42.146Z</time>
      </trkpt>
      <trkpt lat="46.86132" lon="-1.0182">
        <ele>113.7</ele>
        <time>2010-01-01T00:10:08.808Z</time>
      </trkpt>
      <trkpt lat="46.86126" lon="-1.01862">
        <ele>114</ele>
        <time>2010-01-01T00:10:20.371Z</time>
      </trkpt>
      <trkpt lat="46.86108" lon="-1.01887">
        <ele>113.1</ele>
        <time>2010-01-01T00:10:30Z</time>
      </trkpt>
      <trkpt lat="46.86095" lon="-1.01908">
        <ele>113.7</ele>
        <time>2010-01-01T00:10:48Z</time>
      </trkpt>
      <trkpt lat="46.86088" lon="-1.01933">
        <ele>114</ele>
        <time>2010-01-01T00:10:53.458Z</time>
      </trkpt>
      <trkpt lat="46.86076" lon="-1.0194">
        <ele>113.7</ele>
        <time>2010-01-01T00:10:57.566Z</time>
      </trkpt>
      <trkpt lat="46.86062" lon="-1.01934">
        <ele>114</ele>
        <time>2010-01-01T00:11:02Z</time>
      </trkpt>
      <trkpt lat="46.86048" lon="-1.01944">
        <ele>114</ele>
        <time>2010-01-01T00:11:09Z</time>
      </trkpt>
      <trkpt lat="46.85997" lon="-1.01973">
        <ele>114</ele>
        <time>2010-01-01T00:11:31Z</time>
      </trkpt>
      <trkpt lat="46.85957" lon="-1.02005">
        <ele>111</ele>
        <time>2010-01-01T00:11:49Z</time>
      </trkpt>
      <trkpt lat="46.85922" lon="-1.02064">
        <ele>109</ele>
        <time>2010-01-01T00:12:10Z</time>
      </trkpt>
      <trkpt lat="46.85903" lon="-1.02131">
        <ele>109</ele>
        <time>2010-01-01T00:12:30Z</time>
      </trkpt>
      <trkpt lat="46.85875" lon="-1.022">
        <ele>110</ele>
        <time>2010-01-01T00:12:52Z</time>
      </trkpt>
      <trkpt lat="46.85836" lon="-1.02266">
        <ele>110</ele>
        <time>2010-01-01T00:13:16Z</time>
      </trkpt>
      <trkpt lat="46.85932" lon="-1.02458">
        <ele>112</ele>
        <time>2010-01-01T00:14:21Z</time>
      </trkpt>
      <trkpt lat="46.85933" lon="-1.02482">
        <ele>112</ele>
        <time>2010-01-01T00:14:27Z</time>
      </trkpt>
      <trkpt lat="46.85925" lon="-1.02508">
        <ele>111</ele>
        <time>2010-01-01T00:14:35Z</time>
      </trkpt>
      <trkpt lat="46.8584" lon="-1.02578">
        <ele>110</ele>
        <time>2010-01-01T00:15:14Z</time>
      </trkpt>
      <trkpt lat="46.85789" lon="-1.0269">
        <ele>108</ele>
        <time>2010-01-01T00:15:51Z</time>
      </trkpt>
      <trkpt lat="46.85827" lon="-1.02741">
        <ele>108</ele>
        <time>2010-01-01T00:16:12Z</time>
      </trkpt>
      <trkpt lat="46.85877" lon="-1.03027">
        <ele>109</ele>
        <time>2010-01-01T00:17:32Z</time>
      </trkpt>
      <trkpt lat="46.85909" lon="-1.03179">
        <ele>108</ele>
        <time>2010-01-01T00:18:16Z</time>
      </trkpt>
      <trkpt lat="46.85963" lon="-1.03407">
        <ele>110</ele>
        <time>2010-01-01T00:19:22Z</time>
      </trkpt>
      <trkpt lat="46.85872" lon="-1.03558">
        <ele>107</ele>
        <time>2010-01-01T00:20:17Z</time>
      </trkpt>
      <trkpt lat="46.85864" lon="-1.03579">
        <ele>107</ele>
        <time>2010-01-01T00:20:24Z</time>
      </trkpt>
      <trkpt lat="46.85859" lon="-1.03671">
        <ele>107</ele>
        <time>2010-01-01T00:20:49Z</time>
      </trkpt>
      <trkpt lat="46.85751" lon="-1.03612">
        <ele>104</ele>
        <time>2010-01-01T00:21:35Z</time>
      </trkpt>
      <trkpt lat="46.85706" lon="-1.03613">
        <ele>104</ele>
        <time>2010-01-01T00:21:53Z</time>
      </trkpt>
      <trkpt lat="46.85672" lon="-1.03621">
        <ele>103</ele>
        <time>2010-01-01T00:22:07Z</time>
      </trkpt>
      <trkpt lat="46.8557" lon="-1.03646">
        <ele>101</ele>
        <time>2010-01-01T00:22:48Z</time>
      </trkpt>
      <trkpt lat="46.85598" lon="-1.03807">
        <ele>104</ele>
        <time>2010-01-01T00:23:34Z</time>
      </trkpt>
      <trkpt lat="46.85597" lon="-1.0383">
        <ele>104</ele>
        <time>2010-01-01T00:23:40Z</time>
      </trkpt>
      <trkpt lat="46.85544" lon="-1.03946">
        <ele>102</ele>
        <time>2010-01-01T00:24:18Z</time>
      </trkpt>
      <trkpt lat="46.85436" lon="-1.04201">
        <ele>100</ele>
        <time>2010-01-01T00:25:40Z</time>
      </trkpt>
      <trkpt lat="46.85437" lon="-1.04218">
        <ele>100</ele>
        <time>2010-01-01T00:25:45Z</time>
      </trkpt>
      <trkpt lat="46.85467" lon="-1.04234">
        <ele>101</ele>
        <time>2010-01-01T00:25:58Z</time>
      </trkpt>
      <trkpt lat="46.85526" lon="-1.04289">
        <ele>100</ele>
        <time>2010-01-01T00:26:26Z</time>
      </trkpt>
      <trkpt lat="46.85685" lon="-1.04439">
        <ele>102</ele>
        <time>2010-01-01T00:27:42Z</time>
      </trkpt>
      <trkpt lat="46.85696" lon="-1.04429">
        <ele>103</ele>
        <time>2010-01-01T00:27:47Z</time>
      </trkpt>
      <trkpt lat="46.85706" lon="-1.04431">
        <ele>103</ele>
        <time>2010-01-01T00:27:51Z</time>
      </trkpt>
      <trkpt lat="46.85713" lon="-1.04441">
        <ele>103</ele>
        <time>2010-01-01T00:27:55Z</time>
      </trkpt>
      <trkpt lat="46.85714" lon="-1.04459">
        <ele>104</ele>
        <time>2010-01-01T00:28:00Z</time>
      </trkpt>
      <trkpt lat="46.85733" lon="-1.04476">
        <ele>105</ele>
        <time>2010-01-01T00:28:09Z</time>
      </trkpt>
      <trkpt lat="46.8574" lon="-1.04507">
        <ele>105</ele>
        <time>2010-01-01T00:28:18Z</time>
      </trkpt>
      <trkpt lat="46.85745" lon="-1.04582">
        <ele>105</ele>
        <time>2010-01-01T00:28:38Z</time>
      </trkpt>
      <trkpt lat="46.85731" lon="-1.04758">
        <ele>103</ele>
        <time>2010-01-01T00:29:27Z</time>
      </trkpt>
      <trkpt lat="46.85732" lon="-1.04796">
        <ele>103</ele>
        <time>2010-01-01T00:29:37Z</time>
      </trkpt>
      <trkpt lat="46.85754" lon="-1.0497">
        <ele>100</ele>
        <time>2010-01-01T00:30:26Z</time>
      </trkpt>
      <trkpt lat="46.85755" lon="-1.05013">
        <ele>100</ele>
        <time>2010-01-01T00:30:37Z</time>
      </trkpt>
      <trkpt lat="46.85738" lon="-1.05197">
        <ele>100</ele>
        <time>2010-01-01T00:31:28Z</time>
      </trkpt>
      <trkpt lat="46.85724" lon="-1.05256">
        <ele>100</ele>
        <time>2010-01-01T00:31:45Z</time>
      </trkpt>
      <trkpt lat="46.85708" lon="-1.05353">
        <ele>101</ele>
        <time>2010-01-01T00:32:13Z</time>
      </trkpt>
      <trkpt lat="46.85708" lon="-1.05425">
        <ele>98</ele>
        <time>2010-01-01T00:32:32Z</time>
      </trkpt>
      <trkpt lat="46.8572" lon="-1.05502">
        <ele>96</ele>
        <time>2010-01-01T00:32:54Z</time>
      </trkpt>
      <trkpt lat="46.85836" lon="-1.05963">
        <ele>94</ele>
        <time>2010-01-01T00:35:08Z</time>
      </trkpt>
      <trkpt lat="46.85845" lon="-1.06009">
        <ele>95</ele>
        <time>2010-01-01T00:35:21Z</time>
      </trkpt>
      <trkpt lat="46.85846" lon="-1.06039">
        <ele>96</ele>
        <time>2010-01-01T00:35:30Z</time>
      </trkpt>
      <trkpt lat="46.85843" lon="-1.06077">
        <ele>96</ele>
        <time>2010-01-01T00:35:40Z</time>
      </trkpt>
      <trkpt lat="46.85824" lon="-1.06176">
        <ele>97</ele>
        <time>2010-01-01T00:36:08Z</time>
      </trkpt>
      <trkpt lat="46.85815" lon="-1.06293">
        <ele>98</ele>
        <time>2010-01-01T00:36:41Z</time>
      </trkpt>
      <trkpt lat="46.85819" lon="-1.06477">
        <ele>100</ele>
        <time>2010-01-01T00:37:31Z</time>
      </trkpt>
      <trkpt lat="46.85816" lon="-1.06501">
        <ele>100</ele>
        <time>2010-01-01T00:37:38Z</time>
      </trkpt>
      <trkpt lat="46.85761" lon="-1.06721">
        <ele>101</ele>
        <time>2010-01-01T00:38:42Z</time>
      </trkpt>
      <trkpt lat="46.85712" lon="-1.0697">
        <ele>100</ele>
        <time>2010-01-01T00:39:53Z</time>
      </trkpt>
      <trkpt lat="46.85683" lon="-1.07138">
        <ele>99</ele>
        <time>2010-01-01T00:40:40Z</time>
      </trkpt>
      <trkpt lat="46.85673" lon="-1.07225">
        <ele>98</ele>
        <time>2010-01-01T00:41:04Z</time>
      </trkpt>
      <trkpt lat="46.85673" lon="-1.07259">
        <ele>97</ele>
        <time>2010-01-01T00:41:14Z</time>
      </trkpt>
      <trkpt lat="46.85679" lon="-1.07302">
        <ele>97</ele>
        <time>2010-01-01T00:41:26Z</time>
      </trkpt>
      <trkpt lat="46.85713" lon="-1.07462">
        <ele>97</ele>
        <time>2010-01-01T00:42:11Z</time>
      </trkpt>
      <trkpt lat="46.85729" lon="-1.07559">
        <ele>96</ele>
        <time>2010-01-01T00:42:39Z</time>
      </trkpt>
      <trkpt lat="46.85732" lon="-1.07603">
        <ele>96</ele>
        <time>2010-01-01T00:42:51Z</time>
      </trkpt>
      <trkpt lat="46.85734" lon="-1.07907">
        <ele>96</ele>
        <time>2010-01-01T00:44:14Z</time>
      </trkpt>
      <trkpt lat="46.85737" lon="-1.08098">
        <ele>95</ele>
        <time>2010-01-01T00:45:06Z</time>
      </trkpt>
      <trkpt lat="46.85741" lon="-1.08141">
        <ele>94</ele>
        <time>2010-01-01T00:45:18Z</time>
      </trkpt>
      <trkpt lat="46.85808" lon="-1.08423">
        <ele>89</ele>
        <time>2010-01-01T00:46:40Z</time>
      </trkpt>
      <trkpt lat="46.85842" lon="-1.08514">
        <ele>90</ele>
        <time>2010-01-01T00:47:08Z</time>
      </trkpt>
      <trkpt lat="46.85847" lon="-1.08526">
        <ele>90</ele>
        <time>2010-01-01T00:47:12Z</time>
      </trkpt>
      <trkpt lat="46.85801" lon="-1.0861">
        <ele>88</ele>
        <time>2010-01-01T00:47:42Z</time>
      </trkpt>
      <trkpt lat="46.85769" lon="-1.08685">
        <ele>86</ele>
        <time>2010-01-01T00:48:06Z</time>
      </trkpt>
      <trkpt lat="46.85742" lon="-1.0872">
        <ele>85</ele>
        <time>2010-01-01T00:48:20Z</time>
      </trkpt>
      <trkpt lat="46.85733" lon="-1.08721">
        <ele>85</ele>
        <time>2010-01-01T00:48:24Z</time>
      </trkpt>
      <trkpt lat="46.85733" lon="-1.08747">
        <ele>84</ele>
        <time>2010-01-01T00:48:31Z</time>
      </trkpt>
      <trkpt lat="46.85738" lon="-1.08764">
        <ele>83</ele>
        <time>2010-01-01T00:48:36Z</time>
      </trkpt>
      <trkpt lat="46.85835" lon="-1.08916">
        <ele>80</ele>
        <time>2010-01-01T00:49:33Z</time>
      </trkpt>
      <trkpt lat="46.85852" lon="-1.08952">
        <ele>80</ele>
        <time>2010-01-01T00:49:45Z</time>
      </trkpt>
      <trkpt lat="46.85861" lon="-1.09014">
        <ele>79</ele>
        <time>2010-01-01T00:50:02Z</time>
      </trkpt>
      <trkpt lat="46.85858" lon="-1.09119">
        <ele>81</ele>
        <time>2010-01-01T00:50:31Z</time>
      </trkpt>
      <trkpt lat="46.85864" lon="-1.0917">
        <ele>81</ele>
        <time>2010-01-01T00:50:45Z</time>
      </trkpt>
      <trkpt lat="46.85893" lon="-1.09253">
        <ele>85</ele>
        <time>2010-01-01T00:51:11Z</time>
      </trkpt>
      <trkpt lat="46.85948" lon="-1.09371">
        <ele>89</ele>
        <time>2010-01-01T00:51:50Z</time>
      </trkpt>
      <trkpt lat="46.85959" lon="-1.0941">
        <ele>89</ele>
        <time>2010-01-01T00:52:01Z</time>
      </trkpt>
      <trkpt lat="46.85971" lon="-1.09465">
        <ele>89</ele>
        <time>2010-01-01T00:52:17Z</time>
      </trkpt>
      <trkpt lat="46.85979" lon="-1.09525">
        <ele>89</ele>
        <time>2010-01-01T00:52:34Z</time>
      </trkpt>
      <trkpt lat="46.85984" lon="-1.09573">
        <ele>89</ele>
        <time>2010-01-01T00:52:47Z</time>
      </trkpt>
      <trkpt lat="46.85983" lon="-1.09595">
        <ele>90</ele>
        <time>2010-01-01T00:52:53Z</time>
      </trkpt>
      <trkpt lat="46.85953" lon="-1.09658">
        <ele>92</ele>
        <time>2010-01-01T00:53:14Z</time>
      </trkpt>
      <trkpt lat="46.85944" lon="-1.09667">
        <ele>93</ele>
        <time>2010-01-01T00:53:19Z</time>
      </trkpt>
      <trkpt lat="46.85927" lon="-1.09677">
        <ele>94</ele>
        <time>2010-01-01T00:53:26Z</time>
      </trkpt>
      <trkpt lat="46.85852" lon="-1.09703">
        <ele>95</ele>
        <time>2010-01-01T00:53:57Z</time>
      </trkpt>
      <trkpt lat="46.85798" lon="-1.09736">
        <ele>96</ele>
        <time>2010-01-01T00:54:20Z</time>
      </trkpt>
      <trkpt lat="46.85764" lon="-1.09766">
        <ele>97</ele>
        <time>2010-01-01T00:54:36Z</time>
      </trkpt>
      <trkpt lat="46.85759" lon="-1.09759">
        <ele>97</ele>
        <time>2010-01-01T00:54:39Z</time>
      </trkpt>
      <trkpt lat="46.85764" lon="-1.09766">
        <ele>97</ele>
        <time>2010-01-01T00:54:42Z</time>
      </trkpt>
      <trkpt lat="46.85817" lon="-1.0984">
        <ele>96</ele>
        <time>2010-01-01T00:55:11Z</time>
      </trkpt>
      <trkpt lat="46.85853" lon="-1.09905">
        <ele>93</ele>
        <time>2010-01-01T00:55:34Z</time>
      </trkpt>
      <trkpt lat="46.85887" lon="-1.10023">
        <ele>95</ele>
        <time>2010-01-01T00:56:09Z</time>
      </trkpt>
      <trkpt lat="46.85858" lon="-1.10079">
        <ele>95</ele>
        <time>2010-01-01T00:56:28Z</time>
      </trkpt>
      <trkpt lat="46.8582" lon="-1.10121">
        <ele>93</ele>
        <time>2010-01-01T00:56:47Z</time>
      </trkpt>
      <trkpt lat="46.85665" lon="-1.10204">
        <ele>98</ele>
        <time>2010-01-01T00:57:53Z</time>
      </trkpt>
      <trkpt lat="46.85529" lon="-1.10259">
        <ele>99</ele>
        <time>2010-01-01T00:58:50Z</time>
      </trkpt>
      <trkpt lat="46.85488" lon="-1.1027">
        <ele>101</ele>
        <time>2010-01-01T00:59:06Z</time>
      </trkpt>
      <trkpt lat="46.85012" lon="-1.10299">
        <ele>105</ele>
        <time>2010-01-01T01:02:17Z</time>
      </trkpt>
      <trkpt lat="46.84959" lon="-1.1031">
        <ele>105</ele>
        <time>2010-01-01T01:02:39Z</time>
      </trkpt>
      <trkpt lat="46.84902" lon="-1.10329">
        <ele>103</ele>
        <time>2010-01-01T01:03:02Z</time>
      </trkpt>
      <trkpt lat="46.84816" lon="-1.10366">
        <ele>100</ele>
        <time>2010-01-01T01:03:38Z</time>
      </trkpt>
      <trkpt lat="46.8479" lon="-1.10383">
        <ele>99</ele>
        <time>2010-01-01T01:03:49Z</time>
      </trkpt>
      <trkpt lat="46.84709" lon="-1.10407">
        <ele>98</ele>
        <time>2010-01-01T01:04:22Z</time>
      </trkpt>
      <trkpt lat="46.84709" lon="-1.10406">
        <ele>98</ele>
        <time>2010-01-01T01:04:23Z</time>
      </trkpt>
      <trkpt lat="46.84565" lon="-1.10449">
        <ele>96</ele>
        <time>2010-01-01T01:05:22Z</time>
      </trkpt>
      <trkpt lat="46.84494" lon="-1.1048">
        <ele>96</ele>
        <time>2010-01-01T01:05:51Z</time>
      </trkpt>
      <trkpt lat="46.84397" lon="-1.10555">
        <ele>99</ele>
        <time>2010-01-01T01:06:35Z</time>
      </trkpt>
      <trkpt lat="46.84266" lon="-1.10668">
        <ele>100</ele>
        <time>2010-01-01T01:07:36Z</time>
      </trkpt>
      <trkpt lat="46.84163" lon="-1.10767">
        <ele>100</ele>
        <time>2010-01-01T01:08:25Z</time>
      </trkpt>
      <trkpt lat="46.84022" lon="-1.10886">
        <ele>96</ele>
        <time>2010-01-01T01:09:30Z</time>
      </trkpt>
      <trkpt lat="46.83971" lon="-1.10937">
        <ele>95</ele>
        <time>2010-01-01T01:09:55Z</time>
      </trkpt>
      <trkpt lat="46.83779" lon="-1.11167">
        <ele>91</ele>
        <time>2010-01-01T01:11:35Z</time>
      </trkpt>
      <trkpt lat="46.83667" lon="-1.11307">
        <ele>94</ele>
        <time>2010-01-01T01:12:34Z</time>
      </trkpt>
      <trkpt lat="46.83577" lon="-1.11428">
        <ele>96</ele>
        <time>2010-01-01T01:13:23Z</time>
      </trkpt>
      <trkpt lat="46.83548" lon="-1.11483">
        <ele>96</ele>
        <time>2010-01-01T01:13:42Z</time>
      </trkpt>
      <trkpt lat="46.83392" lon="-1.11845">
        <ele>98</ele>
        <time>2010-01-01T01:15:39Z</time>
      </trkpt>
      <trkpt lat="46.83322" lon="-1.11974">
        <ele>98</ele>
        <time>2010-01-01T01:16:24Z</time>
      </trkpt>
      <trkpt lat="46.83266" lon="-1.12024">
        <ele>99</ele>
        <time>2010-01-01T01:16:50Z</time>
      </trkpt>
      <trkpt lat="46.83148" lon="-1.12106">
        <ele>96</ele>
        <time>2010-01-01T01:17:42Z</time>
      </trkpt>
      <trkpt lat="46.83105" lon="-1.12154">
        <ele>95</ele>
        <time>2010-01-01T01:18:04Z</time>
      </trkpt>
      <trkpt lat="46.82835" lon="-1.1242">
        <ele>83</ele>
        <time>2010-01-01T01:20:14Z</time>
      </trkpt>
      <trkpt lat="46.82827" lon="-1.12406">
        <ele>84</ele>
        <time>2010-01-01T01:20:19Z</time>
      </trkpt>
      <trkpt lat="46.82827" lon="-1.12407">
        <ele>84</ele>
        <time>2010-01-01T01:20:20Z</time>
      </trkpt>
      <trkpt lat="46.82835" lon="-1.1242">
        <ele>83</ele>
        <time>2010-01-01T01:20:24Z</time>
      </trkpt>
      <trkpt lat="46.82716" lon="-1.12484">
        <ele>85</ele>
        <time>2010-01-01T01:21:15Z</time>
      </trkpt>
      <trkpt lat="46.82695" lon="-1.12485">
        <ele>85</ele>
        <time>2010-01-01T01:21:24Z</time>
      </trkpt>
      <trkpt lat="46.82685" lon="-1.12475">
        <ele>85</ele>
        <time>2010-01-01T01:21:28Z</time>
      </trkpt>
      <trkpt lat="46.82663" lon="-1.12434">
        <ele>85</ele>
        <time>2010-01-01T01:21:43Z</time>
      </trkpt>
      <trkpt lat="46.82577" lon="-1.12255">
        <ele>86</ele>
        <time>2010-01-01T01:22:43Z</time>
      </trkpt>
      <trkpt lat="46.82487" lon="-1.12128">
        <ele>85</ele>
        <time>2010-01-01T01:23:33Z</time>
      </trkpt>
      <trkpt lat="46.82322" lon="-1.11889">
        <ele>93</ele>
        <time>2010-01-01T01:25:06Z</time>
      </trkpt>
      <trkpt lat="46.82273" lon="-1.11828">
        <ele>94</ele>
        <time>2010-01-01T01:25:31Z</time>
      </trkpt>
      <trkpt lat="46.82199" lon="-1.11781">
        <ele>97</ele>
        <time>2010-01-01T01:26:04Z</time>
      </trkpt>
      <trkpt lat="46.82105" lon="-1.11695">
        <ele>98</ele>
        <time>2010-01-01T01:26:48Z</time>
      </trkpt>
      <trkpt lat="46.81996" lon="-1.11612">
        <ele>98</ele>
        <time>2010-01-01T01:27:37Z</time>
      </trkpt>
      <trkpt lat="46.81906" lon="-1.11552">
        <ele>99</ele>
        <time>2010-01-01T01:28:17Z</time>
      </trkpt>
      <trkpt lat="46.81761" lon="-1.11486">
        <ele>100</ele>
        <time>2010-01-01T01:29:18Z</time>
      </trkpt>
      <trkpt lat="46.81599" lon="-1.11385">
        <ele>105</ele>
        <time>2010-01-01T01:30:28Z</time>
      </trkpt>
      <trkpt lat="46.81408" lon="-1.113">
        <ele>105</ele>
        <time>2010-01-01T01:31:48Z</time>
      </trkpt>
      <trkpt lat="46.81204" lon="-1.11189">
        <ele>103</ele>
        <time>2010-01-01T01:33:15Z</time>
      </trkpt>
      <trkpt lat="46.81157" lon="-1.11182">
        <ele>103</ele>
        <time>2010-01-01T01:33:34Z</time>
      </trkpt>
      <trkpt lat="46.81129" lon="-1.11188">
        <ele>103</ele>
        <time>2010-01-01T01:33:46Z</time>
      </trkpt>
      <trkpt lat="46.81049" lon="-1.11221">
        <ele>101</ele>
        <time>2010-01-01T01:34:19Z</time>
      </trkpt>
      <trkpt lat="46.81031" lon="-1.11222">
        <ele>101</ele>
        <time>2010-01-01T01:34:26Z</time>
      </trkpt>
      <trkpt lat="46.80879" lon="-1.11159">
        <ele>99</ele>
        <time>2010-01-01T01:35:29Z</time>
      </trkpt>
      <trkpt lat="46.80826" lon="-1.11144">
        <ele>99</ele>
        <time>2010-01-01T01:35:51Z</time>
      </trkpt>
      <trkpt lat="46.80798" lon="-1.11128">
        <ele>99</ele>
        <time>2010-01-01T01:36:03Z</time>
      </trkpt>
      <trkpt lat="46.80772" lon="-1.11106">
        <ele>99</ele>
        <time>2010-01-01T01:36:15Z</time>
      </trkpt>
      <trkpt lat="46.80671" lon="-1.10986">
        <ele>93</ele>
        <time>2010-01-01T01:37:07Z</time>
      </trkpt>
      <trkpt lat="46.80653" lon="-1.10971">
        <ele>93</ele>
        <time>2010-01-01T01:37:15Z</time>
      </trkpt>
      <trkpt lat="46.80642" lon="-1.10964">
        <ele>93</ele>
        <time>2010-01-01T01:37:20Z</time>
      </trkpt>
      <trkpt lat="46.80589" lon="-1.10953">
        <ele>92</ele>
        <time>2010-01-01T01:37:42Z</time>
      </trkpt>
      <trkpt lat="46.80566" lon="-1.10941">
        <ele>92</ele>
        <time>2010-01-01T01:37:51Z</time>
      </trkpt>
      <trkpt lat="46.80545" lon="-1.10913">
        <ele>93</ele>
        <time>2010-01-01T01:38:03Z</time>
      </trkpt>
      <trkpt lat="46.80534" lon="-1.10889">
        <ele>93</ele>
        <time>2010-01-01T01:38:11Z</time>
      </trkpt>
      <trkpt lat="46.80498" lon="-1.10809">
        <ele>94</ele>
        <time>2010-01-01T01:38:37Z</time>
      </trkpt>
      <trkpt lat="46.80465" lon="-1.10756">
        <ele>95</ele>
        <time>2010-01-01T01:38:57Z</time>
      </trkpt>
      <trkpt lat="46.80437" lon="-1.10688">
        <ele>95</ele>
        <time>2010-01-01T01:39:18Z</time>
      </trkpt>
      <trkpt lat="46.80406" lon="-1.1057">
        <ele>95</ele>
        <time>2010-01-01T01:39:53Z</time>
      </trkpt>
      <trkpt lat="46.80383" lon="-1.10444">
        <ele>99</ele>
        <time>2010-01-01T01:40:29Z</time>
      </trkpt>
      <trkpt lat="46.8036" lon="-1.10356">
        <ele>98</ele>
        <time>2010-01-01T01:40:54Z</time>
      </trkpt>
      <trkpt lat="46.80319" lon="-1.10218">
        <ele>97</ele>
        <time>2010-01-01T01:41:36Z</time>
      </trkpt>
      <trkpt lat="46.8031" lon="-1.10154">
        <ele>96</ele>
        <time>2010-01-01T01:41:54Z</time>
      </trkpt>
      <trkpt lat="46.80281" lon="-1.10043">
        <ele>95</ele>
        <time>2010-01-01T01:42:26Z</time>
      </trkpt>
      <trkpt lat="46.80274" lon="-1.09987">
        <ele>93</ele>
        <time>2010-01-01T01:42:42Z</time>
      </trkpt>
      <trkpt lat="46.80264" lon="-1.09825">
        <ele>84</ele>
        <time>2010-01-01T01:43:26Z</time>
      </trkpt>
      <trkpt lat="46.80257" lon="-1.09793">
        <ele>83</ele>
        <time>2010-01-01T01:43:36Z</time>
      </trkpt>
      <trkpt lat="46.80247" lon="-1.09768">
        <ele>83</ele>
        <time>2010-01-01T01:43:43Z</time>
      </trkpt>
      <trkpt lat="46.80149" lon="-1.09603">
        <ele>87</ele>
        <time>2010-01-01T01:44:43Z</time>
      </trkpt>
      <trkpt lat="46.80088" lon="-1.09454">
        <ele>90</ele>
        <time>2010-01-01T01:45:31Z</time>
      </trkpt>
      <trkpt lat="46.80009" lon="-1.09347">
        <ele>87</ele>
        <time>2010-01-01T01:46:14Z</time>
      </trkpt>
      <trkpt lat="46.79996" lon="-1.09325">
        <ele>86</ele>
        <time>2010-01-01T01:46:22Z</time>
      </trkpt>
      <trkpt lat="46.79977" lon="-1.09274">
        <ele>85</ele>
        <time>2010-01-01T01:46:38Z</time>
      </trkpt>
      <trkpt lat="46.79961" lon="-1.09204">
        <ele>86</ele>
        <time>2010-01-01T01:46:58Z</time>
      </trkpt>
      <trkpt lat="46.79956" lon="-1.09142">
        <ele>85</ele>
        <time>2010-01-01T01:47:15Z</time>
      </trkpt>
      <trkpt lat="46.79968" lon="-1.0901">
        <ele>85</ele>
        <time>2010-01-01T01:47:52Z</time>
      </trkpt>
      <trkpt lat="46.7996" lon="-1.08905">
        <ele>86</ele>
        <time>2010-01-01T01:48:21Z</time>
      </trkpt>
      <trkpt lat="46.79951" lon="-1.08875">
        <ele>85</ele>
        <time>2010-01-01T01:48:30Z</time>
      </trkpt>
      <trkpt lat="46.79914" lon="-1.08808">
        <ele>86</ele>
        <time>2010-01-01T01:48:53Z</time>
      </trkpt>
      <trkpt lat="46.79861" lon="-1.08667">
        <ele>88</ele>
        <time>2010-01-01T01:49:37Z</time>
      </trkpt>
      <trkpt lat="46.79626" lon="-1.08256">
        <ele>97</ele>
        <time>2010-01-01T01:52:04Z</time>
      </trkpt>
      <trkpt lat="46.79438" lon="-1.07904">
        <ele>96</ele>
        <time>2010-01-01T01:54:06Z</time>
      </trkpt>
      <trkpt lat="46.79316" lon="-1.07689">
        <ele>93</ele>
        <time>2010-01-01T01:55:23Z</time>
      </trkpt>
      <trkpt lat="46.79222" lon="-1.07597">
        <ele>95</ele>
        <time>2010-01-01T01:56:08Z</time>
      </trkpt>
      <trkpt lat="46.7919" lon="-1.07557">
        <ele>95</ele>
        <time>2010-01-01T01:56:25Z</time>
      </trkpt>
      <trkpt lat="46.79137" lon="-1.07423">
        <ele>90</ele>
        <time>2010-01-01T01:57:07Z</time>
      </trkpt>
      <trkpt lat="46.79123" lon="-1.07398">
        <ele>89</ele>
        <time>2010-01-01T01:57:16Z</time>
      </trkpt>
      <trkpt lat="46.7904" lon="-1.07351">
        <ele>87</ele>
        <time>2010-01-01T01:57:52Z</time>
      </trkpt>
      <trkpt lat="46.79006" lon="-1.07326">
        <ele>90</ele>
        <time>2010-01-01T01:58:07Z</time>
      </trkpt>
      <trkpt lat="46.78963" lon="-1.07281">
        <ele>96</ele>
        <time>2010-01-01T01:58:28Z</time>
      </trkpt>
      <trkpt lat="46.78881" lon="-1.07174">
        <ele>104</ele>
        <time>2010-01-01T01:59:12Z</time>
      </trkpt>
      <trkpt lat="46.78857" lon="-1.07122">
        <ele>105</ele>
        <time>2010-01-01T01:59:30Z</time>
      </trkpt>
      <trkpt lat="46.7882" lon="-1.06937">
        <ele>105</ele>
        <time>2010-01-01T02:00:22Z</time>
      </trkpt>
      <trkpt lat="46.78794" lon="-1.06854">
        <ele>107</ele>
        <time>2010-01-01T02:00:47Z</time>
      </trkpt>
      <trkpt lat="46.78782" lon="-1.06831">
        <ele>108</ele>
        <time>2010-01-01T02:00:55Z</time>
      </trkpt>
      <trkpt lat="46.78692" lon="-1.06723">
        <ele>105</ele>
        <time>2010-01-01T02:01:42Z</time>
      </trkpt>
      <trkpt lat="46.78624" lon="-1.06617">
        <ele>105</ele>
        <time>2010-01-01T02:02:22Z</time>
      </trkpt>
      <trkpt lat="46.78609" lon="-1.06604">
        <ele>105</ele>
        <time>2010-01-01T02:02:29Z</time>
      </trkpt>
      <trkpt lat="46.78528" lon="-1.06582">
        <ele>105</ele>
        <time>2010-01-01T02:03:02Z</time>
      </trkpt>
      <trkpt lat="46.7848" lon="-1.06565">
        <ele>104</ele>
        <time>2010-01-01T02:03:22Z</time>
      </trkpt>
      <trkpt lat="46.78454" lon="-1.0655">
        <ele>104</ele>
        <time>2010-01-01T02:03:33Z</time>
      </trkpt>
      <trkpt lat="46.78414" lon="-1.06503">
        <ele>103</ele>
        <time>2010-01-01T02:03:53Z</time>
      </trkpt>
      <trkpt lat="46.78356" lon="-1.06422">
        <ele>103</ele>
        <time>2010-01-01T02:04:25Z</time>
      </trkpt>
      <trkpt lat="46.78314" lon="-1.06392">
        <ele>103</ele>
        <time>2010-01-01T02:04:44Z</time>
      </trkpt>
      <trkpt lat="46.78266" lon="-1.06372">
        <ele>102</ele>
        <time>2010-01-01T02:05:04Z</time>
      </trkpt>
      <trkpt lat="46.78269" lon="-1.06358">
        <ele>102</ele>
        <time>2010-01-01T02:05:08Z</time>
      </trkpt>
      <trkpt lat="46.78296" lon="-1.06213">
        <ele>100</ele>
        <time>2010-01-01T02:05:49Z</time>
      </trkpt>
      <trkpt lat="46.78317" lon="-1.06043">
        <ele>100</ele>
        <time>2010-01-01T02:06:37Z</time>
      </trkpt>
      <trkpt lat="46.78229" lon="-1.06107">
        <ele>101</ele>
        <time>2010-01-01T02:07:16Z</time>
      </trkpt>
      <trkpt lat="46.78149" lon="-1.06181">
        <ele>100</ele>
        <time>2010-01-01T02:07:54Z</time>
      </trkpt>
      <trkpt lat="46.781" lon="-1.06181">
        <ele>98</ele>
        <time>2010-01-01T02:08:14Z</time>
      </trkpt>
      <trkpt lat="46.78082" lon="-1.06189">
        <ele>97</ele>
        <time>2010-01-01T02:08:21Z</time>
      </trkpt>
      <trkpt lat="46.78044" lon="-1.06214">
        <ele>95</ele>
        <time>2010-01-01T02:08:38Z</time>
      </trkpt>
      <trkpt lat="46.78016" lon="-1.06244">
        <ele>96</ele>
        <time>2010-01-01T02:08:52Z</time>
      </trkpt>
      <trkpt lat="46.77955" lon="-1.06273">
        <ele>98</ele>
        <time>2010-01-01T02:09:17Z</time>
      </trkpt>
      <trkpt lat="46.77904" lon="-1.0626">
        <ele>96</ele>
        <time>2010-01-01T02:09:38Z</time>
      </trkpt>
      <trkpt lat="46.77878" lon="-1.06267">
        <ele>94</ele>
        <time>2010-01-01T02:09:49Z</time>
      </trkpt>
      <trkpt lat="46.77849" lon="-1.06298">
        <ele>94</ele>
        <time>2010-01-01T02:10:03Z</time>
      </trkpt>
      <trkpt lat="46.77799" lon="-1.06382">
        <ele>94</ele>
        <time>2010-01-01T02:10:34Z</time>
      </trkpt>
      <trkpt lat="46.7775" lon="-1.06436">
        <ele>93</ele>
        <time>2010-01-01T02:10:58Z</time>
      </trkpt>
      <trkpt lat="46.77753" lon="-1.06449">
        <ele>94</ele>
        <time>2010-01-01T02:11:02Z</time>
      </trkpt>
      <trkpt lat="46.77745" lon="-1.06472">
        <ele>95</ele>
        <time>2010-01-01T02:11:09Z</time>
      </trkpt>
      <trkpt lat="46.7773" lon="-1.06476">
        <ele>93</ele>
        <time>2010-01-01T02:11:15Z</time>
      </trkpt>
      <trkpt lat="46.77721" lon="-1.06468">
        <ele>91</ele>
        <time>2010-01-01T02:11:19Z</time>
      </trkpt>
      <trkpt lat="46.77546" lon="-1.06668">
        <ele>87</ele>
        <time>2010-01-01T02:12:48Z</time>
      </trkpt>
      <trkpt lat="46.77443" lon="-1.0678">
        <ele>85</ele>
        <time>2010-01-01T02:13:40Z</time>
      </trkpt>
      <trkpt lat="46.77395" lon="-1.06844">
        <ele>84</ele>
        <time>2010-01-01T02:14:06Z</time>
      </trkpt>
      <trkpt lat="46.77264" lon="-1.07053">
        <ele>82</ele>
        <time>2010-01-01T02:15:23Z</time>
      </trkpt>
      <trkpt lat="46.77238" lon="-1.07153">
        <ele>80</ele>
        <time>2010-01-01T02:15:53Z</time>
      </trkpt>
      <trkpt lat="46.77219" lon="-1.07166">
        <ele>79</ele>
        <time>2010-01-01T02:16:01Z</time>
      </trkpt>
      <trkpt lat="46.77185" lon="-1.07211">
        <ele>78</ele>
        <time>2010-01-01T02:16:19Z</time>
      </trkpt>
      <trkpt lat="46.77163" lon="-1.07229">
        <ele>78</ele>
        <time>2010-01-01T02:16:30Z</time>
      </trkpt>
      <trkpt lat="46.77131" lon="-1.07244">
        <ele>77</ele>
        <time>2010-01-01T02:16:43Z</time>
      </trkpt>
      <trkpt lat="46.76753" lon="-1.07267">
        <ele>75</ele>
        <time>2010-01-01T02:19:14Z</time>
      </trkpt>
      <trkpt lat="46.7642" lon="-1.07274">
        <ele>71</ele>
        <time>2010-01-01T02:21:28Z</time>
      </trkpt>
      <trkpt lat="46.75686" lon="-1.07185">
        <ele>71</ele>
        <time>2010-01-01T02:26:23Z</time>
      </trkpt>
      <trkpt lat="46.75613" lon="-1.07159">
        <ele>74</ele>
        <time>2010-01-01T02:26:53Z</time>
      </trkpt>
      <trkpt lat="46.75565" lon="-1.07149">
        <ele>76</ele>
        <time>2010-01-01T02:27:12Z</time>
      </trkpt>
      <trkpt lat="46.75577" lon="-1.07149">
        <ele>75</ele>
        <time>2010-01-01T02:27:17Z</time>
      </trkpt>
      <trkpt lat="46.75583" lon="-1.0722">
        <ele>74</ele>
        <time>2010-01-01T02:27:36Z</time>
      </trkpt>
      <trkpt lat="46.756" lon="-1.07288">
        <ele>73</ele>
        <time>2010-01-01T02:27:56Z</time>
      </trkpt>
      <trkpt lat="46.75601" lon="-1.07312">
        <ele>72</ele>
        <time>2010-01-01T02:28:03Z</time>
      </trkpt>
      <trkpt lat="46.75596" lon="-1.07332">
        <ele>72</ele>
        <time>2010-01-01T02:28:09Z</time>
      </trkpt>
      <trkpt lat="46.7553" lon="-1.07422">
        <ele>67</ele>
        <time>2010-01-01T02:28:45Z</time>
      </trkpt>
      <trkpt lat="46.75498" lon="-1.07505">
        <ele>61</ele>
        <time>2010-01-01T02:29:11Z</time>
      </trkpt>
      <trkpt lat="46.75419" lon="-1.07654">
        <ele>59</ele>
        <time>2010-01-01T02:30:03Z</time>
      </trkpt>
      <trkpt lat="46.7538" lon="-1.0771">
        <ele>59</ele>
        <time>2010-01-01T02:30:25Z</time>
      </trkpt>
      <trkpt lat="46.75292" lon="-1.07806">
        <ele>63</ele>
        <time>2010-01-01T02:31:09Z</time>
      </trkpt>
      <trkpt lat="46.7528" lon="-1.07813">
        <ele>63</ele>
        <time>2010-01-01T02:31:14Z</time>
      </trkpt>
      <trkpt lat="46.7523" lon="-1.07821">
        <ele>65</ele>
        <time>2010-01-01T02:31:34Z</time>
      </trkpt>
      <trkpt lat="46.74978" lon="-1.08012">
        <ele>56</ele>
        <time>2010-01-01T02:33:28Z</time>
      </trkpt>
      <trkpt lat="46.74906" lon="-1.0801">
        <ele>60</ele>
        <time>2010-01-01T02:33:56Z</time>
      </trkpt>
      <trkpt lat="46.74801" lon="-1.08018">
        <ele>64</ele>
        <time>2010-01-01T02:34:38Z</time>
      </trkpt>
      <trkpt lat="46.74753" lon="-1.08013">
        <ele>62</ele>
        <time>2010-01-01T02:34:58Z</time>
      </trkpt>
      <trkpt lat="46.74693" lon="-1.07991">
        <ele>60</ele>
        <time>2010-01-01T02:35:23Z</time>
      </trkpt>
      <trkpt lat="46.74675" lon="-1.0798">
        <ele>60</ele>
        <time>2010-01-01T02:35:30Z</time>
      </trkpt>
      <trkpt lat="46.74669" lon="-1.07975">
        <ele>60</ele>
        <time>2010-01-01T02:35:33Z</time>
      </trkpt>
      <trkpt lat="46.74653" lon="-1.07936">
        <ele>60</ele>
        <time>2010-01-01T02:35:46Z</time>
      </trkpt>
      <trkpt lat="46.74599" lon="-1.07973">
        <ele>59</ele>
        <time>2010-01-01T02:36:09Z</time>
      </trkpt>
      <trkpt lat="46.7444" lon="-1.08052">
        <ele>59</ele>
        <time>2010-01-01T02:37:17Z</time>
      </trkpt>
      <trkpt lat="46.74257" lon="-1.08142">
        <ele>64</ele>
        <time>2010-01-01T02:38:34Z</time>
      </trkpt>
      <trkpt lat="46.74227" lon="-1.08163">
        <ele>64</ele>
        <time>2010-01-01T02:38:47Z</time>
      </trkpt>
      <trkpt lat="46.74204" lon="-1.08188">
        <ele>64</ele>
        <time>2010-01-01T02:38:59Z</time>
      </trkpt>
      <trkpt lat="46.74118" lon="-1.08311">
        <ele>67</ele>
        <time>2010-01-01T02:39:47Z</time>
      </trkpt>
      <trkpt lat="46.74107" lon="-1.08341">
        <ele>68</ele>
        <time>2010-01-01T02:39:56Z</time>
      </trkpt>
      <trkpt lat="46.74108" lon="-1.08355">
        <ele>68</ele>
        <time>2010-01-01T02:40:00Z</time>
      </trkpt>
      <trkpt lat="46.74095" lon="-1.08417">
        <ele>68</ele>
        <time>2010-01-01T02:40:18Z</time>
      </trkpt>
      <trkpt lat="46.74091" lon="-1.08475">
        <ele>69</ele>
        <time>2010-01-01T02:40:34Z</time>
      </trkpt>
      <trkpt lat="46.74015" lon="-1.08611">
        <ele>74</ele>
        <time>2010-01-01T02:41:22Z</time>
      </trkpt>
      <trkpt lat="46.74006" lon="-1.08603">
        <ele>74</ele>
        <time>2010-01-01T02:41:26Z</time>
      </trkpt>
      <trkpt lat="46.73902" lon="-1.08514">
        <ele>73</ele>
        <time>2010-01-01T02:42:15Z</time>
      </trkpt>
      <trkpt lat="46.73906" lon="-1.08489">
        <ele>71</ele>
        <time>2010-01-01T02:42:22Z</time>
      </trkpt>
      <trkpt lat="46.73875" lon="-1.08349">
        <ele>69</ele>
        <time>2010-01-01T02:43:02Z</time>
      </trkpt>
      <trkpt lat="46.73846" lon="-1.0816">
        <ele>66</ele>
        <time>2010-01-01T02:43:55Z</time>
      </trkpt>
      <trkpt lat="46.73825" lon="-1.07898">
        <ele>68</ele>
        <time>2010-01-01T02:45:07Z</time>
      </trkpt>
      <trkpt lat="46.73805" lon="-1.07764">
        <ele>71</ele>
        <time>2010-01-01T02:45:45Z</time>
      </trkpt>
      <trkpt lat="46.73725" lon="-1.07388">
        <ele>70</ele>
        <time>2010-01-01T02:47:33Z</time>
      </trkpt>
      <trkpt lat="46.73709" lon="-1.07326">
        <ele>70</ele>
        <time>2010-01-01T02:47:51Z</time>
      </trkpt>
      <trkpt lat="46.73692" lon="-1.07282">
        <ele>70</ele>
        <time>2010-01-01T02:48:05Z</time>
      </trkpt>
      <trkpt lat="46.73625" lon="-1.07154">
        <ele>65</ele>
        <time>2010-01-01T02:48:49Z</time>
      </trkpt>
      <trkpt lat="46.73478" lon="-1.06897">
        <ele>70</ele>
        <time>2010-01-01T02:50:21Z</time>
      </trkpt>
      <trkpt lat="46.73451" lon="-1.06847">
        <ele>70</ele>
        <time>2010-01-01T02:50:39Z</time>
      </trkpt>
      <trkpt lat="46.73411" lon="-1.06788">
        <ele>70</ele>
        <time>2010-01-01T02:51:01Z</time>
      </trkpt>
      <trkpt lat="46.73345" lon="-1.06714">
        <ele>69</ele>
        <time>2010-01-01T02:51:35Z</time>
      </trkpt>
      <trkpt lat="46.73302" lon="-1.06635">
        <ele>69</ele>
        <time>2010-01-01T02:52:02Z</time>
      </trkpt>
      <trkpt lat="46.73271" lon="-1.06597">
        <ele>69</ele>
        <time>2010-01-01T02:52:19Z</time>
      </trkpt>
      <trkpt lat="46.73204" lon="-1.06539">
        <ele>67</ele>
        <time>2010-01-01T02:52:50Z</time>
      </trkpt>
      <trkpt lat="46.73169" lon="-1.06529">
        <ele>66</ele>
        <time>2010-01-01T02:53:04Z</time>
      </trkpt>
      <trkpt lat="46.73097" lon="-1.06583">
        <ele>63</ele>
        <time>2010-01-01T02:53:36Z</time>
      </trkpt>
      <trkpt lat="46.73084" lon="-1.06567">
        <ele>64</ele>
        <time>2010-01-01T02:53:43Z</time>
      </trkpt>
      <trkpt lat="46.73041" lon="-1.06492">
        <ele>64</ele>
        <time>2010-01-01T02:54:10Z</time>
      </trkpt>
      <trkpt lat="46.73023" lon="-1.06445">
        <ele>65</ele>
        <time>2010-01-01T02:54:25Z</time>
      </trkpt>
      <trkpt lat="46.7302" lon="-1.06427">
        <ele>66</ele>
        <time>2010-01-01T02:54:30Z</time>
      </trkpt>
      <trkpt lat="46.7302" lon="-1.06348">
        <ele>69</ele>
        <time>2010-01-01T02:54:52Z</time>
      </trkpt>
      <trkpt lat="46.73024" lon="-1.06329">
        <ele>69</ele>
        <time>2010-01-01T02:54:57Z</time>
      </trkpt>
      <trkpt lat="46.73038" lon="-1.06305">
        <ele>69</ele>
        <time>2010-01-01T02:55:06Z</time>
      </trkpt>
      <trkpt lat="46.73081" lon="-1.06252">
        <ele>68</ele>
        <time>2010-01-01T02:55:28Z</time>
      </trkpt>
      <trkpt lat="46.73095" lon="-1.06227">
        <ele>67</ele>
        <time>2010-01-01T02:55:37Z</time>
      </trkpt>
      <trkpt lat="46.73105" lon="-1.06187">
        <ele>68</ele>
        <time>2010-01-01T02:55:49Z</time>
      </trkpt>
      <trkpt lat="46.731" lon="-1.06158">
        <ele>68</ele>
        <time>2010-01-01T02:55:57Z</time>
      </trkpt>
      <trkpt lat="46.73074" lon="-1.06095">
        <ele>69</ele>
        <time>2010-01-01T02:56:17Z</time>
      </trkpt>
      <trkpt lat="46.73055" lon="-1.06006">
        <ele>68</ele>
        <time>2010-01-01T02:56:43Z</time>
      </trkpt>
      <trkpt lat="46.7305" lon="-1.05877">
        <ele>68</ele>
        <time>2010-01-01T02:57:18Z</time>
      </trkpt>
      <trkpt lat="46.73053" lon="-1.05796">
        <ele>68</ele>
        <time>2010-01-01T02:57:40Z</time>
      </trkpt>
      <trkpt lat="46.73064" lon="-1.05714">
        <ele>70</ele>
        <time>2010-01-01T02:58:03Z</time>
      </trkpt>
      <trkpt lat="46.73107" lon="-1.05507">
        <ele>72</ele>
        <time>2010-01-01T02:59:03Z</time>
      </trkpt>
      <trkpt lat="46.73115" lon="-1.05422">
        <ele>73</ele>
        <time>2010-01-01T02:59:26Z</time>
      </trkpt>
      <trkpt lat="46.73111" lon="-1.05199">
        <ele>75</ele>
        <time>2010-01-01T03:00:28Z</time>
      </trkpt>
      <trkpt lat="46.73129" lon="-1.04878">
        <ele>78</ele>
        <time>2010-01-01T03:01:56Z</time>
      </trkpt>
      <trkpt lat="46.73129" lon="-1.04804">
        <ele>78</ele>
        <time>2010-01-01T03:02:16Z</time>
      </trkpt>
      <trkpt lat="46.73114" lon="-1.04647">
        <ele>80</ele>
        <time>2010-01-01T03:03:00Z</time>
      </trkpt>
      <trkpt lat="46.73089" lon="-1.04557">
        <ele>79</ele>
        <time>2010-01-01T03:03:26Z</time>
      </trkpt>
      <trkpt lat="46.73071" lon="-1.0451">
        <ele>80</ele>
        <time>2010-01-01T03:03:41Z</time>
      </trkpt>
      <trkpt lat="46.73054" lon="-1.04473">
        <ele>80</ele>
        <time>2010-01-01T03:03:53Z</time>
      </trkpt>
      <trkpt lat="46.73026" lon="-1.04434">
        <ele>82</ele>
        <time>2010-01-01T03:04:09Z</time>
      </trkpt>
      <trkpt lat="46.72998" lon="-1.04413">
        <ele>82</ele>
        <time>2010-01-01T03:04:21Z</time>
      </trkpt>
      <trkpt lat="46.7289" lon="-1.04367">
        <ele>82</ele>
        <time>2010-01-01T03:05:06Z</time>
      </trkpt>
      <trkpt lat="46.72861" lon="-1.04348">
        <ele>84</ele>
        <time>2010-01-01T03:05:19Z</time>
      </trkpt>
      <trkpt lat="46.72817" lon="-1.04304">
        <ele>83</ele>
        <time>2010-01-01T03:05:41Z</time>
      </trkpt>
      <trkpt lat="46.72797" lon="-1.04275">
        <ele>83</ele>
        <time>2010-01-01T03:05:52Z</time>
      </trkpt>
      <trkpt lat="46.72753" lon="-1.0419">
        <ele>82</ele>
        <time>2010-01-01T03:06:21Z</time>
      </trkpt>
      <trkpt lat="46.7271" lon="-1.04057">
        <ele>78</ele>
        <time>2010-01-01T03:07:01Z</time>
      </trkpt>
      <trkpt lat="46.72514" lon="-1.03304">
        <ele>83</ele>
        <time>2010-01-01T03:10:42Z</time>
      </trkpt>
      <trkpt lat="46.72406" lon="-1.02997">
        <ele>83</ele>
        <time>2010-01-01T03:12:17Z</time>
      </trkpt>
      <trkpt lat="46.7239" lon="-1.02933">
        <ele>83</ele>
        <time>2010-01-01T03:12:36Z</time>
      </trkpt>
      <trkpt lat="46.72379" lon="-1.0288">
        <ele>84</ele>
        <time>2010-01-01T03:12:51Z</time>
      </trkpt>
      <trkpt lat="46.72363" lon="-1.02875">
        <ele>85</ele>
        <time>2010-01-01T03:12:58Z</time>
      </trkpt>
      <trkpt lat="46.72357" lon="-1.02863">
        <ele>86</ele>
        <time>2010-01-01T03:13:02Z</time>
      </trkpt>
      <trkpt lat="46.72177" lon="-1.02893">
        <ele>82</ele>
        <time>2010-01-01T03:14:14Z</time>
      </trkpt>
      <trkpt lat="46.72091" lon="-1.02914">
        <ele>83</ele>
        <time>2010-01-01T03:14:49Z</time>
      </trkpt>
      <trkpt lat="46.71947" lon="-1.02972">
        <ele>84</ele>
        <time>2010-01-01T03:15:49Z</time>
      </trkpt>
      <trkpt lat="46.71934" lon="-1.02981">
        <ele>84</ele>
        <time>2010-01-01T03:15:55Z</time>
      </trkpt>
      <trkpt lat="46.71563" lon="-1.03384">
        <ele>84</ele>
        <time>2010-01-01T03:19:00Z</time>
      </trkpt>
      <trkpt lat="46.71531" lon="-1.03396">
        <ele>85</ele>
        <time>2010-01-01T03:19:13Z</time>
      </trkpt>
      <trkpt lat="46.71499" lon="-1.03394">
        <ele>85</ele>
        <time>2010-01-01T03:19:26Z</time>
      </trkpt>
      <trkpt lat="46.71444" lon="-1.03357">
        <ele>85</ele>
        <time>2010-01-01T03:19:50Z</time>
      </trkpt>
      <trkpt lat="46.7141" lon="-1.03342">
        <ele>84</ele>
        <time>2010-01-01T03:20:04Z</time>
      </trkpt>
      <trkpt lat="46.71338" lon="-1.03339">
        <ele>83</ele>
        <time>2010-01-01T03:20:33Z</time>
      </trkpt>
      <trkpt lat="46.71295" lon="-1.03355">
        <ele>83</ele>
        <time>2010-01-01T03:20:51Z</time>
      </trkpt>
      <trkpt lat="46.71154" lon="-1.03482">
        <ele>80</ele>
        <time>2010-01-01T03:21:57Z</time>
      </trkpt>
      <trkpt lat="46.71139" lon="-1.0347">
        <ele>79</ele>
        <time>2010-01-01T03:22:04Z</time>
      </trkpt>
      <trkpt lat="46.71103" lon="-1.0342">
        <ele>79</ele>
        <time>2010-01-01T03:22:24Z</time>
      </trkpt>
      <trkpt lat="46.71044" lon="-1.03316">
        <ele>82</ele>
        <time>2010-01-01T03:23:01Z</time>
      </trkpt>
      <trkpt lat="46.71032" lon="-1.03304">
        <ele>83</ele>
        <time>2010-01-01T03:23:07Z</time>
      </trkpt>
      <trkpt lat="46.70972" lon="-1.03275">
        <ele>81</ele>
        <time>2010-01-01T03:23:32Z</time>
      </trkpt>
      <trkpt lat="46.70944" lon="-1.0325">
        <ele>80</ele>
        <time>2010-01-01T03:23:45Z</time>
      </trkpt>
      <trkpt lat="46.70917" lon="-1.03217">
        <ele>79</ele>
        <time>2010-01-01T03:23:59Z</time>
      </trkpt>
      <trkpt lat="46.70887" lon="-1.03152">
        <ele>78</ele>
        <time>2010-01-01T03:24:21Z</time>
      </trkpt>
      <trkpt lat="46.7087" lon="-1.0311">
        <ele>78</ele>
        <time>2010-01-01T03:24:34Z</time>
      </trkpt>
      <trkpt lat="46.70846" lon="-1.0307">
        <ele>78</ele>
        <time>2010-01-01T03:24:49Z</time>
      </trkpt>
      <trkpt lat="46.70874" lon="-1.0303">
        <ele>74</ele>
        <time>2010-01-01T03:25:05Z</time>
      </trkpt>
      <trkpt lat="46.70886" lon="-1.03021">
        <ele>72</ele>
        <time>2010-01-01T03:25:10Z</time>
      </trkpt>
      <trkpt lat="46.70872" lon="-1.02973">
        <ele>71</ele>
        <time>2010-01-01T03:25:24Z</time>
      </trkpt>
      <trkpt lat="46.70863" lon="-1.02915">
        <ele>66</ele>
        <time>2010-01-01T03:25:41Z</time>
      </trkpt>
      <trkpt lat="46.70849" lon="-1.02887">
        <ele>65</ele>
        <time>2010-01-01T03:25:50Z</time>
      </trkpt>
      <trkpt lat="46.70786" lon="-1.02835">
        <ele>68</ele>
        <time>2010-01-01T03:26:19Z</time>
      </trkpt>
      <trkpt lat="46.70706" lon="-1.02785">
        <ele>65</ele>
        <time>2010-01-01T03:26:54Z</time>
      </trkpt>
      <trkpt lat="46.70722" lon="-1.02756">
        <ele>63</ele>
        <time>2010-01-01T03:27:04Z</time>
      </trkpt>
      <trkpt lat="46.70804" lon="-1.02633">
        <ele>55</ele>
        <time>2010-01-01T03:27:51Z</time>
      </trkpt>
      <trkpt lat="46.70847" lon="-1.0256">
        <ele>55</ele>
        <time>2010-01-01T03:28:18Z</time>
      </trkpt>
      <trkpt lat="46.70865" lon="-1.02521">
        <ele>56</ele>
        <time>2010-01-01T03:28:31Z</time>
      </trkpt>
      <trkpt lat="46.70884" lon="-1.02347">
        <ele>59</ele>
        <time>2010-01-01T03:29:19Z</time>
      </trkpt>
      <trkpt lat="46.70894" lon="-1.02299">
        <ele>59</ele>
        <time>2010-01-01T03:29:33Z</time>
      </trkpt>
      <trkpt lat="46.70922" lon="-1.02201">
        <ele>58</ele>
        <time>2010-01-01T03:30:02Z</time>
      </trkpt>
      <trkpt lat="46.70974" lon="-1.02054">
        <ele>63</ele>
        <time>2010-01-01T03:30:47Z</time>
      </trkpt>
      <trkpt lat="46.71001" lon="-1.02001">
        <ele>63</ele>
        <time>2010-01-01T03:31:05Z</time>
      </trkpt>
      <trkpt lat="46.71002" lon="-1.01941">
        <ele>64</ele>
        <time>2010-01-01T03:31:22Z</time>
      </trkpt>
      <trkpt lat="46.70987" lon="-1.01866">
        <ele>64</ele>
        <time>2010-01-01T03:31:43Z</time>
      </trkpt>
      <trkpt lat="46.70983" lon="-1.01755">
        <ele>64</ele>
        <time>2010-01-01T03:32:14Z</time>
      </trkpt>
      <trkpt lat="46.71013" lon="-1.01579">
        <ele>64</ele>
        <time>2010-01-01T03:33:04Z</time>
      </trkpt>
      <trkpt lat="46.71013" lon="-1.01552">
        <ele>64</ele>
        <time>2010-01-01T03:33:11Z</time>
      </trkpt>
      <trkpt lat="46.7101" lon="-1.01519">
        <ele>64</ele>
        <time>2010-01-01T03:33:20Z</time>
      </trkpt>
      <trkpt lat="46.70982" lon="-1.01405">
        <ele>66</ele>
        <time>2010-01-01T03:33:53Z</time>
      </trkpt>
      <trkpt lat="46.70978" lon="-1.01088">
        <ele>74</ele>
        <time>2010-01-01T03:35:20Z</time>
      </trkpt>
      <trkpt lat="46.70974" lon="-1.0102">
        <ele>76</ele>
        <time>2010-01-01T03:35:39Z</time>
      </trkpt>
      <trkpt lat="46.7097" lon="-1.00977">
        <ele>76</ele>
        <time>2010-01-01T03:35:51Z</time>
      </trkpt>
      <trkpt lat="46.70952" lon="-1.00905">
        <ele>75</ele>
        <time>2010-01-01T03:36:12Z</time>
      </trkpt>
      <trkpt lat="46.70884" lon="-1.00734">
        <ele>74</ele>
        <time>2010-01-01T03:37:06Z</time>
      </trkpt>
      <trkpt lat="46.70962" lon="-1.00673">
        <ele>72</ele>
        <time>2010-01-01T03:37:42Z</time>
      </trkpt>
      <trkpt lat="46.70952" lon="-1.00653">
        <ele>72</ele>
        <time>2010-01-01T03:37:49Z</time>
      </trkpt>
      <trkpt lat="46.70937" lon="-1.00604">
        <ele>72</ele>
        <time>2010-01-01T03:38:03Z</time>
      </trkpt>
      <trkpt lat="46.70912" lon="-1.00452">
        <ele>72</ele>
        <time>2010-01-01T03:38:46Z</time>
      </trkpt>
      <trkpt lat="46.70866" lon="-1.00268">
        <ele>69</ele>
        <time>2010-01-01T03:39:40Z</time>
      </trkpt>
      <trkpt lat="46.70848" lon="-1.00078">
        <ele>68</ele>
        <time>2010-01-01T03:40:33Z</time>
      </trkpt>
      <trkpt lat="46.70829" lon="-0.9999">
        <ele>69</ele>
        <time>2010-01-01T03:40:58Z</time>
      </trkpt>
      <trkpt lat="46.70806" lon="-0.99906">
        <ele>68</ele>
        <time>2010-01-01T03:41:23Z</time>
      </trkpt>
      <trkpt lat="46.70795" lon="-0.99847">
        <ele>67</ele>
        <time>2010-01-01T03:41:40Z</time>
      </trkpt>
      <trkpt lat="46.70785" lon="-0.99734">
        <ele>63</ele>
        <time>2010-01-01T03:42:11Z</time>
      </trkpt>
      <trkpt lat="46.70783" lon="-0.99652">
        <ele>65</ele>
        <time>2010-01-01T03:42:33Z</time>
      </trkpt>
      <trkpt lat="46.70786" lon="-0.99542">
        <ele>69</ele>
        <time>2010-01-01T03:43:04Z</time>
      </trkpt>
      <trkpt lat="46.70778" lon="-0.99466">
        <ele>74</ele>
        <time>2010-01-01T03:43:25Z</time>
      </trkpt>
      <trkpt lat="46.70758" lon="-0.99405">
        <ele>75</ele>
        <time>2010-01-01T03:43:43Z</time>
      </trkpt>
      <trkpt lat="46.70737" lon="-0.99359">
        <ele>74</ele>
        <time>2010-01-01T03:43:58Z</time>
      </trkpt>
      <trkpt lat="46.70669" lon="-0.99252">
        <ele>77</ele>
        <time>2010-01-01T03:44:38Z</time>
      </trkpt>
      <trkpt lat="46.7065" lon="-0.99214">
        <ele>75</ele>
        <time>2010-01-01T03:44:51Z</time>
      </trkpt>
      <trkpt lat="46.70631" lon="-0.99172">
        <ele>76</ele>
        <time>2010-01-01T03:45:05Z</time>
      </trkpt>
      <trkpt lat="46.70619" lon="-0.99124">
        <ele>76</ele>
        <time>2010-01-01T03:45:19Z</time>
      </trkpt>
      <trkpt lat="46.70636" lon="-0.98848">
        <ele>82</ele>
        <time>2010-01-01T03:46:35Z</time>
      </trkpt>
      <trkpt lat="46.70638" lon="-0.98761">
        <ele>88</ele>
        <time>2010-01-01T03:46:59Z</time>
      </trkpt>
      <trkpt lat="46.70629" lon="-0.98699">
        <ele>90</ele>
        <time>2010-01-01T03:47:17Z</time>
      </trkpt>
      <trkpt lat="46.70615" lon="-0.98663">
        <ele>89</ele>
        <time>2010-01-01T03:47:28Z</time>
      </trkpt>
      <trkpt lat="46.70521" lon="-0.98503">
        <ele>87</ele>
        <time>2010-01-01T03:48:26Z</time>
      </trkpt>
      <trkpt lat="46.70539" lon="-0.98475">
        <ele>88</ele>
        <time>2010-01-01T03:48:36Z</time>
      </trkpt>
      <trkpt lat="46.70543" lon="-0.98453">
        <ele>89</ele>
        <time>2010-01-01T03:48:43Z</time>
      </trkpt>
      <trkpt lat="46.70533" lon="-0.98325">
        <ele>89</ele>
        <time>2010-01-01T03:49:18Z</time>
      </trkpt>
      <trkpt lat="46.70528" lon="-0.98304">
        <ele>88</ele>
        <time>2010-01-01T03:49:24Z</time>
      </trkpt>
      <trkpt lat="46.70379" lon="-0.97876">
        <ele>97</ele>
        <time>2010-01-01T03:51:36Z</time>
      </trkpt>
      <trkpt lat="46.70361" lon="-0.97777">
        <ele>97</ele>
        <time>2010-01-01T03:52:04Z</time>
      </trkpt>
      <trkpt lat="46.70331" lon="-0.97727">
        <ele>96</ele>
        <time>2010-01-01T03:52:22Z</time>
      </trkpt>
      <trkpt lat="46.70299" lon="-0.97691">
        <ele>95</ele>
        <time>2010-01-01T03:52:38Z</time>
      </trkpt>
      <trkpt lat="46.7029" lon="-0.97665">
        <ele>94</ele>
        <time>2010-01-01T03:52:46Z</time>
      </trkpt>
      <trkpt lat="46.70293" lon="-0.97645">
        <ele>94</ele>
        <time>2010-01-01T03:52:52Z</time>
      </trkpt>
      <trkpt lat="46.70328" lon="-0.97611">
        <ele>94</ele>
        <time>2010-01-01T03:53:09Z</time>
      </trkpt>
      <trkpt lat="46.70333" lon="-0.9759">
        <ele>94</ele>
        <time>2010-01-01T03:53:15Z</time>
      </trkpt>
      <trkpt lat="46.70338" lon="-0.97539">
        <ele>93</ele>
        <time>2010-01-01T03:53:29Z</time>
      </trkpt>
      <trkpt lat="46.70338" lon="-0.97425">
        <ele>89</ele>
        <time>2010-01-01T03:54:00Z</time>
      </trkpt>
      <trkpt lat="46.70346" lon="-0.97308">
        <ele>88</ele>
        <time>2010-01-01T03:54:33Z</time>
      </trkpt>
      <trkpt lat="46.70359" lon="-0.97279">
        <ele>88</ele>
        <time>2010-01-01T03:54:42Z</time>
      </trkpt>
      <trkpt lat="46.7039" lon="-0.97243">
        <ele>88</ele>
        <time>2010-01-01T03:54:58Z</time>
      </trkpt>
      <trkpt lat="46.70386" lon="-0.97201">
        <ele>88</ele>
        <time>2010-01-01T03:55:10Z</time>
      </trkpt>
      <trkpt lat="46.70378" lon="-0.9717">
        <ele>88</ele>
        <time>2010-01-01T03:55:19Z</time>
      </trkpt>
      <trkpt lat="46.70341" lon="-0.97083">
        <ele>86</ele>
        <time>2010-01-01T03:55:47Z</time>
      </trkpt>
      <trkpt lat="46.70317" lon="-0.97049">
        <ele>86</ele>
        <time>2010-01-01T03:56:00Z</time>
      </trkpt>
      <trkpt lat="46.70153" lon="-0.96871">
        <ele>83</ele>
        <time>2010-01-01T03:57:22Z</time>
      </trkpt>
      <trkpt lat="46.70136" lon="-0.96848">
        <ele>82</ele>
        <time>2010-01-01T03:57:31Z</time>
      </trkpt>
      <trkpt lat="46.70121" lon="-0.96779">
        <ele>81</ele>
        <time>2010-01-01T03:57:51Z</time>
      </trkpt>
      <trkpt lat="46.70057" lon="-0.96404">
        <ele>73</ele>
        <time>2010-01-01T03:59:37Z</time>
      </trkpt>
      <trkpt lat="46.70052" lon="-0.9637">
        <ele>72</ele>
        <time>2010-01-01T03:59:47Z</time>
      </trkpt>
      <trkpt lat="46.70054" lon="-0.96303">
        <ele>68</ele>
        <time>2010-01-01T04:00:05Z</time>
      </trkpt>
      <trkpt lat="46.7008" lon="-0.96185">
        <ele>65</ele>
        <time>2010-01-01T04:00:39Z</time>
      </trkpt>
      <trkpt lat="46.70097" lon="-0.96127">
        <ele>58</ele>
        <time>2010-01-01T04:00:57Z</time>
      </trkpt>
      <trkpt lat="46.70098" lon="-0.96058">
        <ele>54</ele>
        <time>2010-01-01T04:01:15Z</time>
      </trkpt>
      <trkpt lat="46.70091" lon="-0.96006">
        <ele>53</ele>
        <time>2010-01-01T04:01:30Z</time>
      </trkpt>
      <trkpt lat="46.70064" lon="-0.95928">
        <ele>53</ele>
        <time>2010-01-01T04:01:54Z</time>
      </trkpt>
      <trkpt lat="46.70003" lon="-0.95782">
        <ele>53</ele>
        <time>2010-01-01T04:02:41Z</time>
      </trkpt>
      <trkpt lat="46.69993" lon="-0.95729">
        <ele>53</ele>
        <time>2010-01-01T04:02:56Z</time>
      </trkpt>
      <trkpt lat="46.69994" lon="-0.95699">
        <ele>53</ele>
        <time>2010-01-01T04:03:04Z</time>
      </trkpt>
      <trkpt lat="46.70001" lon="-0.95661">
        <ele>53</ele>
        <time>2010-01-01T04:03:15Z</time>
      </trkpt>
      <trkpt lat="46.70048" lon="-0.95512">
        <ele>59</ele>
        <time>2010-01-01T04:04:00Z</time>
      </trkpt>
      <trkpt lat="46.70066" lon="-0.95333">
        <ele>62</ele>
        <time>2010-01-01T04:04:50Z</time>
      </trkpt>
      <trkpt lat="46.70063" lon="-0.95291">
        <ele>63</ele>
        <time>2010-01-01T04:05:01Z</time>
      </trkpt>
      <trkpt lat="46.70053" lon="-0.95257">
        <ele>66</ele>
        <time>2010-01-01T04:05:12Z</time>
      </trkpt>
      <trkpt lat="46.70034" lon="-0.95222">
        <ele>68</ele>
        <time>2010-01-01T04:05:24Z</time>
      </trkpt>
      <trkpt lat="46.69997" lon="-0.95175">
        <ele>72</ele>
        <time>2010-01-01T04:05:43Z</time>
      </trkpt>
      <trkpt lat="46.69985" lon="-0.95149">
        <ele>73</ele>
        <time>2010-01-01T04:05:52Z</time>
      </trkpt>
      <trkpt lat="46.6998" lon="-0.95123">
        <ele>73</ele>
        <time>2010-01-01T04:05:59Z</time>
      </trkpt>
      <trkpt lat="46.69981" lon="-0.9509">
        <ele>75</ele>
        <time>2010-01-01T04:06:09Z</time>
      </trkpt>
      <trkpt lat="46.69994" lon="-0.95001">
        <ele>76</ele>
        <time>2010-01-01T04:06:33Z</time>
      </trkpt>
      <trkpt lat="46.69989" lon="-0.94878">
        <ele>79</ele>
        <time>2010-01-01T04:07:07Z</time>
      </trkpt>
      <trkpt lat="46.69989" lon="-0.94824">
        <ele>79</ele>
        <time>2010-01-01T04:07:22Z</time>
      </trkpt>
      <trkpt lat="46.69994" lon="-0.94786">
        <ele>80</ele>
        <time>2010-01-01T04:07:33Z</time>
      </trkpt>
      <trkpt lat="46.70001" lon="-0.94769">
        <ele>81</ele>
        <time>2010-01-01T04:07:38Z</time>
      </trkpt>
      <trkpt lat="46.70045" lon="-0.94712">
        <ele>83</ele>
        <time>2010-01-01T04:08:02Z</time>
      </trkpt>
      <trkpt lat="46.70419" lon="-0.94405">
        <ele>82</ele>
        <time>2010-01-01T04:10:54Z</time>
      </trkpt>
      <trkpt lat="46.70455" lon="-0.94367">
        <ele>85</ele>
        <time>2010-01-01T04:11:11Z</time>
      </trkpt>
      <trkpt lat="46.70513" lon="-0.94291">
        <ele>86</ele>
        <time>2010-01-01T04:11:43Z</time>
      </trkpt>
      <trkpt lat="46.70576" lon="-0.94236">
        <ele>83</ele>
        <time>2010-01-01T04:12:12Z</time>
      </trkpt>
      <trkpt lat="46.70594" lon="-0.94223">
        <ele>83</ele>
        <time>2010-01-01T04:12:20Z</time>
      </trkpt>
      <trkpt lat="46.70611" lon="-0.94218">
        <ele>83</ele>
        <time>2010-01-01T04:12:27Z</time>
      </trkpt>
      <trkpt lat="46.70721" lon="-0.94196">
        <ele>85</ele>
        <time>2010-01-01T04:13:11Z</time>
      </trkpt>
      <trkpt lat="46.70816" lon="-0.94167">
        <ele>83</ele>
        <time>2010-01-01T04:13:50Z</time>
      </trkpt>
      <trkpt lat="46.70859" lon="-0.94141">
        <ele>81</ele>
        <time>2010-01-01T04:14:09Z</time>
      </trkpt>
      <trkpt lat="46.70926" lon="-0.94082">
        <ele>74</ele>
        <time>2010-01-01T04:14:40Z</time>
      </trkpt>
      <trkpt lat="46.70984" lon="-0.94023">
        <ele>67</ele>
        <time>2010-01-01T04:15:09Z</time>
      </trkpt>
      <trkpt lat="46.71003" lon="-0.93999">
        <ele>65</ele>
        <time>2010-01-01T04:15:19Z</time>
      </trkpt>
      <trkpt lat="46.7101" lon="-0.93983">
        <ele>63</ele>
        <time>2010-01-01T04:15:24Z</time>
      </trkpt>
      <trkpt lat="46.71048" lon="-0.93744">
        <ele>64</ele>
        <time>2010-01-01T04:16:31Z</time>
      </trkpt>
      <trkpt lat="46.71079" lon="-0.93647">
        <ele>65</ele>
        <time>2010-01-01T04:17:01Z</time>
      </trkpt>
      <trkpt lat="46.71099" lon="-0.93455">
        <ele>66</ele>
        <time>2010-01-01T04:17:54Z</time>
      </trkpt>
      <trkpt lat="46.71104" lon="-0.93402">
        <ele>68</ele>
        <time>2010-01-01T04:18:08Z</time>
      </trkpt>
      <trkpt lat="46.71131" lon="-0.93298">
        <ele>70</ele>
        <time>2010-01-01T04:18:39Z</time>
      </trkpt>
      <trkpt lat="46.71134" lon="-0.93222">
        <ele>73</ele>
        <time>2010-01-01T04:19:00Z</time>
      </trkpt>
      <trkpt lat="46.71132" lon="-0.93117">
        <ele>74</ele>
        <time>2010-01-01T04:19:29Z</time>
      </trkpt>
      <trkpt lat="46.71104" lon="-0.92911">
        <ele>75</ele>
        <time>2010-01-01T04:20:26Z</time>
      </trkpt>
      <trkpt lat="46.71104" lon="-0.92856">
        <ele>77</ele>
        <time>2010-01-01T04:20:41Z</time>
      </trkpt>
      <trkpt lat="46.71162" lon="-0.92787">
        <ele>85</ele>
        <time>2010-01-01T04:21:11Z</time>
      </trkpt>
      <trkpt lat="46.712" lon="-0.92537">
        <ele>93</ele>
        <time>2010-01-01T04:22:22Z</time>
      </trkpt>
      <trkpt lat="46.71216" lon="-0.92485">
        <ele>93</ele>
        <time>2010-01-01T04:22:37Z</time>
      </trkpt>
      <trkpt lat="46.71331" lon="-0.92351">
        <ele>98</ele>
        <time>2010-01-01T04:23:36Z</time>
      </trkpt>
      <trkpt lat="46.71345" lon="-0.92328">
        <ele>99</ele>
        <time>2010-01-01T04:23:45Z</time>
      </trkpt>
      <trkpt lat="46.71356" lon="-0.923">
        <ele>99</ele>
        <time>2010-01-01T04:23:54Z</time>
      </trkpt>
      <trkpt lat="46.71373" lon="-0.92231">
        <ele>100</ele>
        <time>2010-01-01T04:24:14Z</time>
      </trkpt>
      <trkpt lat="46.71393" lon="-0.92182">
        <ele>99</ele>
        <time>2010-01-01T04:24:29Z</time>
      </trkpt>
      <trkpt lat="46.71415" lon="-0.92156">
        <ele>99</ele>
        <time>2010-01-01T04:24:41Z</time>
      </trkpt>
      <trkpt lat="46.71504" lon="-0.92085">
        <ele>104</ele>
        <time>2010-01-01T04:25:21Z</time>
      </trkpt>
      <trkpt lat="46.71496" lon="-0.92061">
        <ele>103</ele>
        <time>2010-01-01T04:25:29Z</time>
      </trkpt>
      <trkpt lat="46.71504" lon="-0.92085">
        <ele>104</ele>
        <time>2010-01-01T04:25:36Z</time>
      </trkpt>
      <trkpt lat="46.71653" lon="-0.91964">
        <ele>106</ele>
        <time>2010-01-01T04:26:44Z</time>
      </trkpt>
      <trkpt lat="46.71658" lon="-0.91945">
        <ele>105</ele>
        <time>2010-01-01T04:26:50Z</time>
      </trkpt>
      <trkpt lat="46.71683" lon="-0.91943">
        <ele>104</ele>
        <time>2010-01-01T04:27:00Z</time>
      </trkpt>
      <trkpt lat="46.71704" lon="-0.91929">
        <ele>103</ele>
        <time>2010-01-01T04:27:09Z</time>
      </trkpt>
      <trkpt lat="46.71711" lon="-0.91919">
        <ele>103</ele>
        <time>2010-01-01T04:27:13Z</time>
      </trkpt>
      <trkpt lat="46.71738" lon="-0.91926">
        <ele>102</ele>
        <time>2010-01-01T04:27:24Z</time>
      </trkpt>
      <trkpt lat="46.71746" lon="-0.91935">
        <ele>102</ele>
        <time>2010-01-01T04:27:28Z</time>
      </trkpt>
      <trkpt lat="46.7181" lon="-0.92068">
        <ele>102</ele>
        <time>2010-01-01T04:28:13Z</time>
      </trkpt>
      <trkpt lat="46.71828" lon="-0.92097">
        <ele>102</ele>
        <time>2010-01-01T04:28:23Z</time>
      </trkpt>
      <trkpt lat="46.71869" lon="-0.92136">
        <ele>98</ele>
        <time>2010-01-01T04:28:43Z</time>
      </trkpt>
      <trkpt lat="46.72013" lon="-0.92231">
        <ele>94</ele>
        <time>2010-01-01T04:29:46Z</time>
      </trkpt>
      <trkpt lat="46.72222" lon="-0.92338">
        <ele>82</ele>
        <time>2010-01-01T04:31:15Z</time>
      </trkpt>
      <trkpt lat="46.72307" lon="-0.9239">
        <ele>77</ele>
        <time>2010-01-01T04:31:52Z</time>
      </trkpt>
      <trkpt lat="46.72323" lon="-0.92418">
        <ele>75</ele>
        <time>2010-01-01T04:32:02Z</time>
      </trkpt>
      <trkpt lat="46.72332" lon="-0.92443">
        <ele>75</ele>
        <time>2010-01-01T04:32:10Z</time>
      </trkpt>
      <trkpt lat="46.72354" lon="-0.92535">
        <ele>70</ele>
        <time>2010-01-01T04:32:36Z</time>
      </trkpt>
      <trkpt lat="46.72389" lon="-0.92604">
        <ele>68</ele>
        <time>2010-01-01T04:33:00Z</time>
      </trkpt>
      <trkpt lat="46.7243" lon="-0.92663">
        <ele>70</ele>
        <time>2010-01-01T04:33:23Z</time>
      </trkpt>
      <trkpt lat="46.72512" lon="-0.92756">
        <ele>76</ele>
        <time>2010-01-01T04:34:04Z</time>
      </trkpt>
      <trkpt lat="46.72588" lon="-0.92867">
        <ele>82</ele>
        <time>2010-01-01T04:34:48Z</time>
      </trkpt>
      <trkpt lat="46.72635" lon="-0.92962">
        <ele>91</ele>
        <time>2010-01-01T04:35:20Z</time>
      </trkpt>
      <trkpt lat="46.72662" lon="-0.93006">
        <ele>92</ele>
        <time>2010-01-01T04:35:36Z</time>
      </trkpt>
      <trkpt lat="46.72819" lon="-0.93209">
        <ele>98</ele>
        <time>2010-01-01T04:37:00Z</time>
      </trkpt>
      <trkpt lat="46.73005" lon="-0.9346">
        <ele>101</ele>
        <time>2010-01-01T04:38:41Z</time>
      </trkpt>
      <trkpt lat="46.7307" lon="-0.93638">
        <ele>103</ele>
        <time>2010-01-01T04:39:37Z</time>
      </trkpt>
      <trkpt lat="46.73129" lon="-0.93749">
        <ele>104</ele>
        <time>2010-01-01T04:40:15Z</time>
      </trkpt>
      <trkpt lat="46.73357" lon="-0.9406">
        <ele>101</ele>
        <time>2010-01-01T04:42:20Z</time>
      </trkpt>
      <trkpt lat="46.73472" lon="-0.9421">
        <ele>99</ele>
        <time>2010-01-01T04:43:22Z</time>
      </trkpt>
      <trkpt lat="46.73548" lon="-0.94297">
        <ele>96</ele>
        <time>2010-01-01T04:44:00Z</time>
      </trkpt>
      <trkpt lat="46.7363" lon="-0.94365">
        <ele>98</ele>
        <time>2010-01-01T04:44:38Z</time>
      </trkpt>
      <trkpt lat="46.73699" lon="-0.94391">
        <ele>98</ele>
        <time>2010-01-01T04:45:07Z</time>
      </trkpt>
      <trkpt lat="46.73797" lon="-0.94406">
        <ele>103</ele>
        <time>2010-01-01T04:45:46Z</time>
      </trkpt>
      <trkpt lat="46.73842" lon="-0.94432">
        <ele>105</ele>
        <time>2010-01-01T04:46:06Z</time>
      </trkpt>
      <trkpt lat="46.73872" lon="-0.94458">
        <ele>107</ele>
        <time>2010-01-01T04:46:20Z</time>
      </trkpt>
      <trkpt lat="46.73926" lon="-0.94512">
        <ele>108</ele>
        <time>2010-01-01T04:46:46Z</time>
      </trkpt>
      <trkpt lat="46.7395" lon="-0.94543">
        <ele>109</ele>
        <time>2010-01-01T04:46:59Z</time>
      </trkpt>
      <trkpt lat="46.73979" lon="-0.94562">
        <ele>110</ele>
        <time>2010-01-01T04:47:11Z</time>
      </trkpt>
      <trkpt lat="46.74014" lon="-0.94629">
        <ele>109</ele>
        <time>2010-01-01T04:47:34Z</time>
      </trkpt>
      <trkpt lat="46.74018" lon="-0.94657">
        <ele>109</ele>
        <time>2010-01-01T04:47:42Z</time>
      </trkpt>
      <trkpt lat="46.74093" lon="-0.94801">
        <ele>107</ele>
        <time>2010-01-01T04:48:32Z</time>
      </trkpt>
      <trkpt lat="46.74155" lon="-0.94872">
        <ele>109</ele>
        <time>2010-01-01T04:49:03Z</time>
      </trkpt>
      <trkpt lat="46.74311" lon="-0.949">
        <ele>105</ele>
        <time>2010-01-01T04:50:06Z</time>
      </trkpt>
      <trkpt lat="46.74383" lon="-0.94908">
        <ele>101</ele>
        <time>2010-01-01T04:50:35Z</time>
      </trkpt>
      <trkpt lat="46.7442" lon="-0.94894">
        <ele>100</ele>
        <time>2010-01-01T04:50:51Z</time>
      </trkpt>
      <trkpt lat="46.74445" lon="-0.94893">
        <ele>99</ele>
        <time>2010-01-01T04:51:01Z</time>
      </trkpt>
      <trkpt lat="46.74457" lon="-0.94906">
        <ele>99</ele>
        <time>2010-01-01T04:51:07Z</time>
      </trkpt>
      <trkpt lat="46.74471" lon="-0.94956">
        <ele>98</ele>
        <time>2010-01-01T04:51:21Z</time>
      </trkpt>
      <trkpt lat="46.74501" lon="-0.94946">
        <ele>97</ele>
        <time>2010-01-01T04:51:34Z</time>
      </trkpt>
      <trkpt lat="46.74508" lon="-0.94954">
        <ele>97</ele>
        <time>2010-01-01T04:51:37Z</time>
      </trkpt>
      <trkpt lat="46.74535" lon="-0.95016">
        <ele>93</ele>
        <time>2010-01-01T04:51:57Z</time>
      </trkpt>
      <trkpt lat="46.74552" lon="-0.95038">
        <ele>92</ele>
        <time>2010-01-01T04:52:07Z</time>
      </trkpt>
      <trkpt lat="46.7459" lon="-0.95064">
        <ele>90</ele>
        <time>2010-01-01T04:52:23Z</time>
      </trkpt>
      <trkpt lat="46.74669" lon="-0.95101">
        <ele>86</ele>
        <time>2010-01-01T04:52:57Z</time>
      </trkpt>
      <trkpt lat="46.74732" lon="-0.95172">
        <ele>81</ele>
        <time>2010-01-01T04:53:28Z</time>
      </trkpt>
      <trkpt lat="46.74762" lon="-0.95176">
        <ele>76</ele>
        <time>2010-01-01T04:53:40Z</time>
      </trkpt>
      <trkpt lat="46.74807" lon="-0.95153">
        <ele>73</ele>
        <time>2010-01-01T04:54:00Z</time>
      </trkpt>
      <trkpt lat="46.74878" lon="-0.95149">
        <ele>74</ele>
        <time>2010-01-01T04:54:28Z</time>
      </trkpt>
      <trkpt lat="46.74919" lon="-0.95129">
        <ele>72</ele>
        <time>2010-01-01T04:54:45Z</time>
      </trkpt>
      <trkpt lat="46.74955" lon="-0.95124">
        <ele>68</ele>
        <time>2010-01-01T04:55:00Z</time>
      </trkpt>
      <trkpt lat="46.74981" lon="-0.9513">
        <ele>65</ele>
        <time>2010-01-01T04:55:10Z</time>
      </trkpt>
      <trkpt lat="46.75029" lon="-0.95159">
        <ele>65</ele>
        <time>2010-01-01T04:55:31Z</time>
      </trkpt>
      <trkpt lat="46.75057" lon="-0.95195">
        <ele>67</ele>
        <time>2010-01-01T04:55:46Z</time>
      </trkpt>
      <trkpt lat="46.75063" lon="-0.9521">
        <ele>68</ele>
        <time>2010-01-01T04:55:51Z</time>
      </trkpt>
      <trkpt lat="46.75085" lon="-0.95353">
        <ele>75</ele>
        <time>2010-01-01T04:56:31Z</time>
      </trkpt>
      <trkpt lat="46.75097" lon="-0.95414">
        <ele>76</ele>
        <time>2010-01-01T04:56:48Z</time>
      </trkpt>
      <trkpt lat="46.75106" lon="-0.95441">
        <ele>77</ele>
        <time>2010-01-01T04:56:57Z</time>
      </trkpt>
      <trkpt lat="46.75117" lon="-0.95466">
        <ele>78</ele>
        <time>2010-01-01T04:57:05Z</time>
      </trkpt>
      <trkpt lat="46.75144" lon="-0.955">
        <ele>79</ele>
        <time>2010-01-01T04:57:19Z</time>
      </trkpt>
      <trkpt lat="46.75196" lon="-0.95548">
        <ele>84</ele>
        <time>2010-01-01T04:57:44Z</time>
      </trkpt>
      <trkpt lat="46.75254" lon="-0.95589">
        <ele>88</ele>
        <time>2010-01-01T04:58:09Z</time>
      </trkpt>
      <trkpt lat="46.75295" lon="-0.95646">
        <ele>91</ele>
        <time>2010-01-01T04:58:32Z</time>
      </trkpt>
      <trkpt lat="46.75322" lon="-0.957">
        <ele>97</ele>
        <time>2010-01-01T04:58:50Z</time>
      </trkpt>
      <trkpt lat="46.75368" lon="-0.95813">
        <ele>98</ele>
        <time>2010-01-01T04:59:27Z</time>
      </trkpt>
      <trkpt lat="46.75383" lon="-0.9584">
        <ele>98</ele>
        <time>2010-01-01T04:59:36Z</time>
      </trkpt>
      <trkpt lat="46.75432" lon="-0.95895">
        <ele>100</ele>
        <time>2010-01-01T05:00:01Z</time>
      </trkpt>
      <trkpt lat="46.75525" lon="-0.95969">
        <ele>103</ele>
        <time>2010-01-01T05:00:43Z</time>
      </trkpt>
      <trkpt lat="46.75532" lon="-0.9598">
        <ele>103</ele>
        <time>2010-01-01T05:00:47Z</time>
      </trkpt>
      <trkpt lat="46.75566" lon="-0.96061">
        <ele>104</ele>
        <time>2010-01-01T05:01:13Z</time>
      </trkpt>
      <trkpt lat="46.75649" lon="-0.96286">
        <ele>108</ele>
        <time>2010-01-01T05:02:23Z</time>
      </trkpt>
      <trkpt lat="46.75689" lon="-0.96256">
        <ele>109</ele>
        <time>2010-01-01T05:02:41Z</time>
      </trkpt>
      <trkpt lat="46.75715" lon="-0.96227">
        <ele>110</ele>
        <time>2010-01-01T05:02:55Z</time>
      </trkpt>
      <trkpt lat="46.75754" lon="-0.9618">
        <ele>110</ele>
        <time>2010-01-01T05:03:15Z</time>
      </trkpt>
      <trkpt lat="46.75804" lon="-0.96145">
        <ele>112</ele>
        <time>2010-01-01T05:03:37Z</time>
      </trkpt>
      <trkpt lat="46.75884" lon="-0.96111">
        <ele>111</ele>
        <time>2010-01-01T05:04:10Z</time>
      </trkpt>
      <trkpt lat="46.75951" lon="-0.96105">
        <ele>109</ele>
        <time>2010-01-01T05:04:37Z</time>
      </trkpt>
      <trkpt lat="46.75982" lon="-0.96097">
        <ele>109</ele>
        <time>2010-01-01T05:04:50Z</time>
      </trkpt>
      <trkpt lat="46.76016" lon="-0.96071">
        <ele>106</ele>
        <time>2010-01-01T05:05:05Z</time>
      </trkpt>
      <trkpt lat="46.76037" lon="-0.9604">
        <ele>105</ele>
        <time>2010-01-01T05:05:17Z</time>
      </trkpt>
      <trkpt lat="46.76028" lon="-0.96018">
        <ele>105</ele>
        <time>2010-01-01T05:05:24Z</time>
      </trkpt>
      <trkpt lat="46.76032" lon="-0.95999">
        <ele>105</ele>
        <time>2010-01-01T05:05:30Z</time>
      </trkpt>
      <trkpt lat="46.76043" lon="-0.95991">
        <ele>105</ele>
        <time>2010-01-01T05:05:35Z</time>
      </trkpt>
      <trkpt lat="46.76059" lon="-0.95998">
        <ele>104</ele>
        <time>2010-01-01T05:05:41Z</time>
      </trkpt>
      <trkpt lat="46.76223" lon="-0.95821">
        <ele>107</ele>
        <time>2010-01-01T05:07:03Z</time>
      </trkpt>
      <trkpt lat="46.76267" lon="-0.95764">
        <ele>110</ele>
        <time>2010-01-01T05:07:26Z</time>
      </trkpt>
      <trkpt lat="46.76294" lon="-0.95699">
        <ele>111</ele>
        <time>2010-01-01T05:07:47Z</time>
      </trkpt>
      <trkpt lat="46.76315" lon="-0.95664">
        <ele>111</ele>
        <time>2010-01-01T05:08:00Z</time>
      </trkpt>
      <trkpt lat="46.76358" lon="-0.95617">
        <ele>112</ele>
        <time>2010-01-01T05:08:22Z</time>
      </trkpt>
      <trkpt lat="46.76431" lon="-0.95552">
        <ele>110</ele>
        <time>2010-01-01T05:08:56Z</time>
      </trkpt>
      <trkpt lat="46.7655" lon="-0.95457">
        <ele>107</ele>
        <time>2010-01-01T05:09:50Z</time>
      </trkpt>
      <trkpt lat="46.76598" lon="-0.95432">
        <ele>106</ele>
        <time>2010-01-01T05:10:10Z</time>
      </trkpt>
      <trkpt lat="46.76702" lon="-0.95407">
        <ele>101</ele>
        <time>2010-01-01T05:10:53Z</time>
      </trkpt>
      <trkpt lat="46.7673" lon="-0.95383">
        <ele>98</ele>
        <time>2010-01-01T05:11:06Z</time>
      </trkpt>
      <trkpt lat="46.76869" lon="-0.95252">
        <ele>106</ele>
        <time>2010-01-01T05:12:12Z</time>
      </trkpt>
      <trkpt lat="46.76914" lon="-0.95221">
        <ele>107</ele>
        <time>2010-01-01T05:12:32Z</time>
      </trkpt>
      <trkpt lat="46.77012" lon="-0.95197">
        <ele>111</ele>
        <time>2010-01-01T05:13:12Z</time>
      </trkpt>
      <trkpt lat="46.7716" lon="-0.95178">
        <ele>114</ele>
        <time>2010-01-01T05:14:11Z</time>
      </trkpt>
      <trkpt lat="46.77224" lon="-0.95181">
        <ele>111</ele>
        <time>2010-01-01T05:14:37Z</time>
      </trkpt>
      <trkpt lat="46.77245" lon="-0.95175">
        <ele>112</ele>
        <time>2010-01-01T05:14:45Z</time>
      </trkpt>
      <trkpt lat="46.77271" lon="-0.95144">
        <ele>113</ele>
        <time>2010-01-01T05:14:59Z</time>
      </trkpt>
      <trkpt lat="46.77295" lon="-0.95088">
        <ele>115</ele>
        <time>2010-01-01T05:15:17Z</time>
      </trkpt>
      <trkpt lat="46.77347" lon="-0.94996">
        <ele>119</ele>
        <time>2010-01-01T05:15:49Z</time>
      </trkpt>
      <trkpt lat="46.77447" lon="-0.94856">
        <ele>115</ele>
        <time>2010-01-01T05:16:45Z</time>
      </trkpt>
      <trkpt lat="46.77778" lon="-0.94589">
        <ele>105</ele>
        <time>2010-01-01T05:19:16Z</time>
      </trkpt>
      <trkpt lat="46.77831" lon="-0.94538">
        <ele>105</ele>
        <time>2010-01-01T05:19:42Z</time>
      </trkpt>
      <trkpt lat="46.77898" lon="-0.94455">
        <ele>109</ele>
        <time>2010-01-01T05:20:17Z</time>
      </trkpt>
      <trkpt lat="46.7792" lon="-0.94438">
        <ele>111</ele>
        <time>2010-01-01T05:20:27Z</time>
      </trkpt>
      <trkpt lat="46.78063" lon="-0.94374">
        <ele>114</ele>
        <time>2010-01-01T05:21:27Z</time>
      </trkpt>
      <trkpt lat="46.78103" lon="-0.94341">
        <ele>114</ele>
        <time>2010-01-01T05:21:45Z</time>
      </trkpt>
      <trkpt lat="46.78138" lon="-0.94276">
        <ele>113</ele>
        <time>2010-01-01T05:22:08Z</time>
      </trkpt>
      <trkpt lat="46.78197" lon="-0.94148">
        <ele>114</ele>
        <time>2010-01-01T05:22:50Z</time>
      </trkpt>
      <trkpt lat="46.78234" lon="-0.94112">
        <ele>115</ele>
        <time>2010-01-01T05:23:08Z</time>
      </trkpt>
      <trkpt lat="46.78341" lon="-0.94031">
        <ele>119</ele>
        <time>2010-01-01T05:23:56Z</time>
      </trkpt>
      <trkpt lat="46.78464" lon="-0.93893">
        <ele>121</ele>
        <time>2010-01-01T05:24:58Z</time>
      </trkpt>
      <trkpt lat="46.78588" lon="-0.93735">
        <ele>121</ele>
        <time>2010-01-01T05:26:04Z</time>
      </trkpt>
      <trkpt lat="46.78627" lon="-0.93674">
        <ele>123</ele>
        <time>2010-01-01T05:26:27Z</time>
      </trkpt>
      <trkpt lat="46.78647" lon="-0.93636">
        <ele>124</ele>
        <time>2010-01-01T05:26:40Z</time>
      </trkpt>
      <trkpt lat="46.78655" lon="-0.93612">
        <ele>124</ele>
        <time>2010-01-01T05:26:47Z</time>
      </trkpt>
      <trkpt lat="46.78685" lon="-0.93439">
        <ele>123</ele>
        <time>2010-01-01T05:27:36Z</time>
      </trkpt>
      <trkpt lat="46.78698" lon="-0.93383">
        <ele>123</ele>
        <time>2010-01-01T05:27:53Z</time>
      </trkpt>
      <trkpt lat="46.7893" lon="-0.93102">
        <ele>128</ele>
        <time>2010-01-01T05:29:53Z</time>
      </trkpt>
      <trkpt lat="46.7897" lon="-0.93046">
        <ele>133</ele>
        <time>2010-01-01T05:30:15Z</time>
      </trkpt>
      <trkpt lat="46.79035" lon="-0.9292">
        <ele>138</ele>
        <time>2010-01-01T05:30:59Z</time>
      </trkpt>
      <trkpt lat="46.79233" lon="-0.92747">
        <ele>130</ele>
        <time>2010-01-01T05:32:31Z</time>
      </trkpt>
      <trkpt lat="46.79291" lon="-0.92685">
        <ele>126</ele>
        <time>2010-01-01T05:33:00Z</time>
      </trkpt>
      <trkpt lat="46.79352" lon="-0.92677">
        <ele>125</ele>
        <time>2010-01-01T05:33:24Z</time>
      </trkpt>
      <trkpt lat="46.79388" lon="-0.92682">
        <ele>127</ele>
        <time>2010-01-01T05:33:39Z</time>
      </trkpt>
      <trkpt lat="46.79409" lon="-0.92628">
        <ele>129</ele>
        <time>2010-01-01T05:33:56Z</time>
      </trkpt>
      <trkpt lat="46.79423" lon="-0.926">
        <ele>128</ele>
        <time>2010-01-01T05:34:05Z</time>
      </trkpt>
      <trkpt lat="46.79438" lon="-0.92582">
        <ele>128</ele>
        <time>2010-01-01T05:34:13Z</time>
      </trkpt>
      <trkpt lat="46.79475" lon="-0.92587">
        <ele>131</ele>
        <time>2010-01-01T05:34:28Z</time>
      </trkpt>
      <trkpt lat="46.79575" lon="-0.92638">
        <ele>136</ele>
        <time>2010-01-01T05:35:10Z</time>
      </trkpt>
      <trkpt lat="46.79597" lon="-0.9264">
        <ele>137</ele>
        <time>2010-01-01T05:35:19Z</time>
      </trkpt>
      <trkpt lat="46.79664" lon="-0.92625">
        <ele>139</ele>
        <time>2010-01-01T05:35:46Z</time>
      </trkpt>
      <trkpt lat="46.79686" lon="-0.92632">
        <ele>139</ele>
        <time>2010-01-01T05:35:55Z</time>
      </trkpt>
      <trkpt lat="46.79716" lon="-0.92641">
        <ele>140</ele>
        <time>2010-01-01T05:36:08Z</time>
      </trkpt>
      <trkpt lat="46.79766" lon="-0.92645">
        <ele>142</ele>
        <time>2010-01-01T05:36:28Z</time>
      </trkpt>
      <trkpt lat="46.79771" lon="-0.92629">
        <ele>141</ele>
        <time>2010-01-01T05:36:32Z</time>
      </trkpt>
      <trkpt lat="46.79833" lon="-0.92546">
        <ele>140</ele>
        <time>2010-01-01T05:37:06Z</time>
      </trkpt>
      <trkpt lat="46.79988" lon="-0.9232">
        <ele>143</ele>
        <time>2010-01-01T05:38:34Z</time>
      </trkpt>
      <trkpt lat="46.80177" lon="-0.92121">
        <ele>148</ele>
        <time>2010-01-01T05:40:07Z</time>
      </trkpt>
      <trkpt lat="46.802" lon="-0.92101">
        <ele>149</ele>
        <time>2010-01-01T05:40:18Z</time>
      </trkpt>
      <trkpt lat="46.80309" lon="-0.91972">
        <ele>152</ele>
        <time>2010-01-01T05:41:14Z</time>
      </trkpt>
      <trkpt lat="46.80418" lon="-0.91863">
        <ele>154</ele>
        <time>2010-01-01T05:42:07Z</time>
      </trkpt>
      <trkpt lat="46.80459" lon="-0.91835">
        <ele>154</ele>
        <time>2010-01-01T05:42:25Z</time>
      </trkpt>
      <trkpt lat="46.80536" lon="-0.91801">
        <ele>153</ele>
        <time>2010-01-01T05:42:57Z</time>
      </trkpt>
      <trkpt lat="46.80563" lon="-0.91755">
        <ele>152</ele>
        <time>2010-01-01T05:43:14Z</time>
      </trkpt>
      <trkpt lat="46.80602" lon="-0.91647">
        <ele>152</ele>
        <time>2010-01-01T05:43:47Z</time>
      </trkpt>
      <trkpt lat="46.80631" lon="-0.91601">
        <ele>150</ele>
        <time>2010-01-01T05:44:04Z</time>
      </trkpt>
      <trkpt lat="46.80764" lon="-0.91499">
        <ele>148</ele>
        <time>2010-01-01T05:45:04Z</time>
      </trkpt>
      <trkpt lat="46.80789" lon="-0.91474">
        <ele>147</ele>
        <time>2010-01-01T05:45:17Z</time>
      </trkpt>
      <trkpt lat="46.80824" lon="-0.91429">
        <ele>148</ele>
        <time>2010-01-01T05:45:35Z</time>
      </trkpt>
      <trkpt lat="46.80836" lon="-0.914">
        <ele>148</ele>
        <time>2010-01-01T05:45:44Z</time>
      </trkpt>
      <trkpt lat="46.80846" lon="-0.91354">
        <ele>148</ele>
        <time>2010-01-01T05:45:58Z</time>
      </trkpt>
      <trkpt lat="46.80847" lon="-0.91324">
        <ele>148</ele>
        <time>2010-01-01T05:46:06Z</time>
      </trkpt>
      <trkpt lat="46.80846" lon="-0.91343">
        <ele>148</ele>
        <time>2010-01-01T05:46:11Z</time>
      </trkpt>
      <trkpt lat="46.80867" lon="-0.91343">
        <ele>149</ele>
        <time>2010-01-01T05:46:20Z</time>
      </trkpt>
      <trkpt lat="46.8089" lon="-0.91359">
        <ele>150</ele>
        <time>2010-01-01T05:46:30Z</time>
      </trkpt>
      <trkpt lat="46.8091" lon="-0.91394">
        <ele>149</ele>
        <time>2010-01-01T05:46:42Z</time>
      </trkpt>
      <trkpt lat="46.80915" lon="-0.91435">
        <ele>148</ele>
        <time>2010-01-01T05:46:54Z</time>
      </trkpt>
      <trkpt lat="46.80937" lon="-0.91488">
        <ele>148</ele>
        <time>2010-01-01T05:47:11Z</time>
      </trkpt>
      <trkpt lat="46.80949" lon="-0.91548">
        <ele>147</ele>
        <time>2010-01-01T05:47:28Z</time>
      </trkpt>
      <trkpt lat="46.8097" lon="-0.91578">
        <ele>147</ele>
        <time>2010-01-01T05:47:39Z</time>
      </trkpt>
      <trkpt lat="46.81016" lon="-0.91611">
        <ele>146</ele>
        <time>2010-01-01T05:48:00Z</time>
      </trkpt>
      <trkpt lat="46.81043" lon="-0.91621">
        <ele>144</ele>
        <time>2010-01-01T05:48:11Z</time>
      </trkpt>
      <trkpt lat="46.81104" lon="-0.91623">
        <ele>143</ele>
        <time>2010-01-01T05:48:36Z</time>
      </trkpt>
      <trkpt lat="46.81127" lon="-0.9163">
        <ele>142</ele>
        <time>2010-01-01T05:48:45Z</time>
      </trkpt>
      <trkpt lat="46.81158" lon="-0.91651">
        <ele>141</ele>
        <time>2010-01-01T05:48:59Z</time>
      </trkpt>
      <trkpt lat="46.81226" lon="-0.91736">
        <ele>139</ele>
        <time>2010-01-01T05:49:34Z</time>
      </trkpt>
      <trkpt lat="46.81261" lon="-0.91763">
        <ele>135</ele>
        <time>2010-01-01T05:49:50Z</time>
      </trkpt>
      <trkpt lat="46.81284" lon="-0.91768">
        <ele>134</ele>
        <time>2010-01-01T05:50:00Z</time>
      </trkpt>
      <trkpt lat="46.81453" lon="-0.91772">
        <ele>143</ele>
        <time>2010-01-01T05:51:07Z</time>
      </trkpt>
      <trkpt lat="46.8148" lon="-0.9179">
        <ele>142</ele>
        <time>2010-01-01T05:51:19Z</time>
      </trkpt>
      <trkpt lat="46.815" lon="-0.91819">
        <ele>142</ele>
        <time>2010-01-01T05:51:30Z</time>
      </trkpt>
      <trkpt lat="46.81548" lon="-0.9176">
        <ele>146</ele>
        <time>2010-01-01T05:51:56Z</time>
      </trkpt>
      <trkpt lat="46.81716" lon="-0.91605">
        <ele>151</ele>
        <time>2010-01-01T05:53:15Z</time>
      </trkpt>
      <trkpt lat="46.81723" lon="-0.91597">
        <ele>151</ele>
        <time>2010-01-01T05:53:19Z</time>
      </trkpt>
      <trkpt lat="46.81746" lon="-0.91639">
        <ele>150</ele>
        <time>2010-01-01T05:53:33Z</time>
      </trkpt>
      <trkpt lat="46.81784" lon="-0.9174">
        <ele>144</ele>
        <time>2010-01-01T05:54:05Z</time>
      </trkpt>
      <trkpt lat="46.81803" lon="-0.91809">
        <ele>141</ele>
        <time>2010-01-01T05:54:25Z</time>
      </trkpt>
      <trkpt lat="46.81831" lon="-0.91935">
        <ele>134</ele>
        <time>2010-01-01T05:55:02Z</time>
      </trkpt>
      <trkpt lat="46.81854" lon="-0.92002">
        <ele>137</ele>
        <time>2010-01-01T05:55:22Z</time>
      </trkpt>
      <trkpt lat="46.81874" lon="-0.92044">
        <ele>138</ele>
        <time>2010-01-01T05:55:36Z</time>
      </trkpt>
      <trkpt lat="46.81895" lon="-0.92077">
        <ele>139</ele>
        <time>2010-01-01T05:55:49Z</time>
      </trkpt>
      <trkpt lat="46.81918" lon="-0.92101">
        <ele>140</ele>
        <time>2010-01-01T05:56:00Z</time>
      </trkpt>
      <trkpt lat="46.82004" lon="-0.92163">
        <ele>139</ele>
        <time>2010-01-01T05:56:38Z</time>
      </trkpt>
      <trkpt lat="46.82055" lon="-0.92194">
        <ele>140</ele>
        <time>2010-01-01T05:57:00Z</time>
      </trkpt>
      <trkpt lat="46.82083" lon="-0.9223">
        <ele>142</ele>
        <time>2010-01-01T05:57:15Z</time>
      </trkpt>
      <trkpt lat="46.8209" lon="-0.9225">
        <ele>141</ele>
        <time>2010-01-01T05:57:21Z</time>
      </trkpt>
      <trkpt lat="46.821" lon="-0.92305">
        <ele>140</ele>
        <time>2010-01-01T05:57:37Z</time>
      </trkpt>
      <trkpt lat="46.82101" lon="-0.9234">
        <ele>138</ele>
        <time>2010-01-01T05:57:47Z</time>
      </trkpt>
      <trkpt lat="46.82095" lon="-0.92444">
        <ele>137</ele>
        <time>2010-01-01T05:58:15Z</time>
      </trkpt>
      <trkpt lat="46.82101" lon="-0.92483">
        <ele>137</ele>
        <time>2010-01-01T05:58:26Z</time>
      </trkpt>
      <trkpt lat="46.82191" lon="-0.92701">
        <ele>140</ele>
        <time>2010-01-01T05:59:36Z</time>
      </trkpt>
      <trkpt lat="46.82201" lon="-0.92724">
        <ele>142</ele>
        <time>2010-01-01T05:59:43Z</time>
      </trkpt>
      <trkpt lat="46.82267" lon="-0.92671">
        <ele>143</ele>
        <time>2010-01-01T06:00:13Z</time>
      </trkpt>
      <trkpt lat="46.82295" lon="-0.92642">
        <ele>141</ele>
        <time>2010-01-01T06:00:27Z</time>
      </trkpt>
      <trkpt lat="46.82319" lon="-0.92613">
        <ele>140</ele>
        <time>2010-01-01T06:00:40Z</time>
      </trkpt>
      <trkpt lat="46.82361" lon="-0.92547">
        <ele>138</ele>
        <time>2010-01-01T06:01:04Z</time>
      </trkpt>
      <trkpt lat="46.82387" lon="-0.92487">
        <ele>137</ele>
        <time>2010-01-01T06:01:24Z</time>
      </trkpt>
      <trkpt lat="46.82475" lon="-0.92402">
        <ele>138</ele>
        <time>2010-01-01T06:02:06Z</time>
      </trkpt>
      <trkpt lat="46.82512" lon="-0.92351">
        <ele>140</ele>
        <time>2010-01-01T06:02:26Z</time>
      </trkpt>
      <trkpt lat="46.82557" lon="-0.92275">
        <ele>143</ele>
        <time>2010-01-01T06:02:54Z</time>
      </trkpt>
      <trkpt lat="46.82585" lon="-0.92203">
        <ele>146</ele>
        <time>2010-01-01T06:03:17Z</time>
      </trkpt>
      <trkpt lat="46.82629" lon="-0.9207">
        <ele>147</ele>
        <time>2010-01-01T06:03:57Z</time>
      </trkpt>
      <trkpt lat="46.8266" lon="-0.92017">
        <ele>147</ele>
        <time>2010-01-01T06:04:16Z</time>
      </trkpt>
      <trkpt lat="46.8276" lon="-0.91907">
        <ele>151</ele>
        <time>2010-01-01T06:05:06Z</time>
      </trkpt>
      <trkpt lat="46.82823" lon="-0.919">
        <ele>151</ele>
        <time>2010-01-01T06:05:32Z</time>
      </trkpt>
      <trkpt lat="46.82822" lon="-0.91856">
        <ele>156</ele>
        <time>2010-01-01T06:05:44Z</time>
      </trkpt>
      <trkpt lat="46.82826" lon="-0.91924">
        <ele>150</ele>
        <time>2010-01-01T06:06:02Z</time>
      </trkpt>
      <trkpt lat="46.82853" lon="-0.91986">
        <ele>147</ele>
        <time>2010-01-01T06:06:22Z</time>
      </trkpt>
      <trkpt lat="46.82891" lon="-0.92048">
        <ele>144</ele>
        <time>2010-01-01T06:06:45Z</time>
      </trkpt>
      <trkpt lat="46.8294" lon="-0.921">
        <ele>142</ele>
        <time>2010-01-01T06:07:10Z</time>
      </trkpt>
      <trkpt lat="46.82951" lon="-0.92146">
        <ele>142</ele>
        <time>2010-01-01T06:07:23Z</time>
      </trkpt>
      <trkpt lat="46.82946" lon="-0.92203">
        <ele>142</ele>
        <time>2010-01-01T06:07:39Z</time>
      </trkpt>
      <trkpt lat="46.82897" lon="-0.92282">
        <ele>141</ele>
        <time>2010-01-01T06:08:08Z</time>
      </trkpt>
      <trkpt lat="46.82891" lon="-0.92303">
        <ele>141</ele>
        <time>2010-01-01T06:08:14Z</time>
      </trkpt>
      <trkpt lat="46.82832" lon="-0.92579">
        <ele>146</ele>
        <time>2010-01-01T06:09:33Z</time>
      </trkpt>
      <trkpt lat="46.8282" lon="-0.92653">
        <ele>144</ele>
        <time>2010-01-01T06:09:54Z</time>
      </trkpt>
      <trkpt lat="46.82816" lon="-0.92705">
        <ele>141</ele>
        <time>2010-01-01T06:10:08Z</time>
      </trkpt>
      <trkpt lat="46.82804" lon="-0.92766">
        <ele>140</ele>
        <time>2010-01-01T06:10:26Z</time>
      </trkpt>
      <trkpt lat="46.8276" lon="-0.9288">
        <ele>140</ele>
        <time>2010-01-01T06:11:02Z</time>
      </trkpt>
      <trkpt lat="46.82743" lon="-0.92943">
        <ele>140</ele>
        <time>2010-01-01T06:11:20Z</time>
      </trkpt>
      <trkpt lat="46.82747" lon="-0.93162">
        <ele>136</ele>
        <time>2010-01-01T06:12:20Z</time>
      </trkpt>
      <trkpt lat="46.82739" lon="-0.93159">
        <ele>136</ele>
        <time>2010-01-01T06:12:23Z</time>
      </trkpt>
      <trkpt lat="46.82767" lon="-0.9317">
        <ele>135</ele>
        <time>2010-01-01T06:12:35Z</time>
      </trkpt>
      <trkpt lat="46.82823" lon="-0.93204">
        <ele>132</ele>
        <time>2010-01-01T06:12:59Z</time>
      </trkpt>
      <trkpt lat="46.82877" lon="-0.93245">
        <ele>134</ele>
        <time>2010-01-01T06:13:24Z</time>
      </trkpt>
      <trkpt lat="46.82915" lon="-0.93262">
        <ele>135</ele>
        <time>2010-01-01T06:13:40Z</time>
      </trkpt>
      <trkpt lat="46.83304" lon="-0.93279">
        <ele>152</ele>
        <time>2010-01-01T06:16:15Z</time>
      </trkpt>
      <trkpt lat="46.83384" lon="-0.93271">
        <ele>157</ele>
        <time>2010-01-01T06:16:47Z</time>
      </trkpt>
      <trkpt lat="46.83455" lon="-0.93272">
        <ele>157</ele>
        <time>2010-01-01T06:17:16Z</time>
      </trkpt>
      <trkpt lat="46.8352" lon="-0.93258">
        <ele>159</ele>
        <time>2010-01-01T06:17:42Z</time>
      </trkpt>
      <trkpt lat="46.83548" lon="-0.93259">
        <ele>159</ele>
        <time>2010-01-01T06:17:53Z</time>
      </trkpt>
      <trkpt lat="46.83695" lon="-0.93306">
        <ele>165</ele>
        <time>2010-01-01T06:18:54Z</time>
      </trkpt>
      <trkpt lat="46.83798" lon="-0.93317">
        <ele>164</ele>
        <time>2010-01-01T06:19:35Z</time>
      </trkpt>
      <trkpt lat="46.83898" lon="-0.93304">
        <ele>166</ele>
        <time>2010-01-01T06:20:15Z</time>
      </trkpt>
      <trkpt lat="46.83992" lon="-0.93277">
        <ele>166</ele>
        <time>2010-01-01T06:20:54Z</time>
      </trkpt>
      <trkpt lat="46.84019" lon="-0.93278">
        <ele>166</ele>
        <time>2010-01-01T06:21:04Z</time>
      </trkpt>
      <trkpt lat="46.84157" lon="-0.93344">
        <ele>166</ele>
        <time>2010-01-01T06:22:02Z</time>
      </trkpt>
      <trkpt lat="46.84283" lon="-0.93368">
        <ele>166</ele>
        <time>2010-01-01T06:22:53Z</time>
      </trkpt>
      <trkpt lat="46.8431" lon="-0.93365">
        <ele>165</ele>
        <time>2010-01-01T06:23:04Z</time>
      </trkpt>
      <trkpt lat="46.84351" lon="-0.93345">
        <ele>165</ele>
        <time>2010-01-01T06:23:21Z</time>
      </trkpt>
      <trkpt lat="46.84652" lon="-0.93164">
        <ele>168</ele>
        <time>2010-01-01T06:25:32Z</time>
      </trkpt>
      <trkpt lat="46.84765" lon="-0.93106">
        <ele>170</ele>
        <time>2010-01-01T06:26:20Z</time>
      </trkpt>
      <trkpt lat="46.84826" lon="-0.93088">
        <ele>169</ele>
        <time>2010-01-01T06:26:45Z</time>
      </trkpt>
      <trkpt lat="46.84895" lon="-0.9309">
        <ele>169</ele>
        <time>2010-01-01T06:27:12Z</time>
      </trkpt>
      <trkpt lat="46.84947" lon="-0.93116">
        <ele>171</ele>
        <time>2010-01-01T06:27:34Z</time>
      </trkpt>
      <trkpt lat="46.8497" lon="-0.93134">
        <ele>171</ele>
        <time>2010-01-01T06:27:45Z</time>
      </trkpt>
      <trkpt lat="46.84979" lon="-0.93133">
        <ele>171</ele>
        <time>2010-01-01T06:27:48Z</time>
      </trkpt>
      <trkpt lat="46.85025" lon="-0.93154">
        <ele>170</ele>
        <time>2010-01-01T06:28:08Z</time>
      </trkpt>
      <trkpt lat="46.85053" lon="-0.93161">
        <ele>171</ele>
        <time>2010-01-01T06:28:19Z</time>
      </trkpt>
      <trkpt lat="46.85062" lon="-0.93166">
        <ele>171</ele>
        <time>2010-01-01T06:28:23Z</time>
      </trkpt>
      <trkpt lat="46.85067" lon="-0.93178">
        <ele>170</ele>
        <time>2010-01-01T06:28:27Z</time>
      </trkpt>
      <trkpt lat="46.85135" lon="-0.93203">
        <ele>168</ele>
        <time>2010-01-01T06:28:55Z</time>
      </trkpt>
      <trkpt lat="46.85181" lon="-0.93215">
        <ele>168</ele>
        <time>2010-01-01T06:29:13Z</time>
      </trkpt>
      <trkpt lat="46.85211" lon="-0.93215">
        <ele>167</ele>
        <time>2010-01-01T06:29:25Z</time>
      </trkpt>
      <trkpt lat="46.85247" lon="-0.93198">
        <ele>166</ele>
        <time>2010-01-01T06:29:41Z</time>
      </trkpt>
      <trkpt lat="46.85352" lon="-0.93125">
        <ele>157</ele>
        <time>2010-01-01T06:30:27Z</time>
      </trkpt>
      <trkpt lat="46.85411" lon="-0.93078">
        <ele>155</ele>
        <time>2010-01-01T06:30:54Z</time>
      </trkpt>
      <trkpt lat="46.85512" lon="-0.9292">
        <ele>159</ele>
        <time>2010-01-01T06:31:53Z</time>
      </trkpt>
      <trkpt lat="46.85557" lon="-0.92866">
        <ele>156</ele>
        <time>2010-01-01T06:32:17Z</time>
      </trkpt>
      <trkpt lat="46.85593" lon="-0.92847">
        <ele>154</ele>
        <time>2010-01-01T06:32:32Z</time>
      </trkpt>
      <trkpt lat="46.85692" lon="-0.92809">
        <ele>145</ele>
        <time>2010-01-01T06:33:13Z</time>
      </trkpt>
      <trkpt lat="46.85791" lon="-0.92716">
        <ele>144</ele>
        <time>2010-01-01T06:34:00Z</time>
      </trkpt>
      <trkpt lat="46.85828" lon="-0.92707">
        <ele>143</ele>
        <time>2010-01-01T06:34:15Z</time>
      </trkpt>
      <trkpt lat="46.8586" lon="-0.92712">
        <ele>141</ele>
        <time>2010-01-01T06:34:28Z</time>
      </trkpt>
      <trkpt lat="46.85958" lon="-0.9277">
        <ele>133</ele>
        <time>2010-01-01T06:35:10Z</time>
      </trkpt>
      <trkpt lat="46.85981" lon="-0.92769">
        <ele>133</ele>
        <time>2010-01-01T06:35:19Z</time>
      </trkpt>
      <trkpt lat="46.86006" lon="-0.9276">
        <ele>132</ele>
        <time>2010-01-01T06:35:30Z</time>
      </trkpt>
      <trkpt lat="46.86031" lon="-0.92739">
        <ele>132</ele>
        <time>2010-01-01T06:35:41Z</time>
      </trkpt>
      <trkpt lat="46.86046" lon="-0.92714">
        <ele>131.6</ele>
        <time>2010-01-01T06:35:51Z</time>
      </trkpt>
      <trkpt lat="46.86055" lon="-0.92693">
        <ele>132.1</ele>
        <time>2010-01-01T06:35:58Z</time>
      </trkpt>
      <trkpt lat="46.86068" lon="-0.92647">
        <ele>135.8</ele>
        <time>2010-01-01T06:36:11.716Z</time>
      </trkpt>
      <trkpt lat="46.8608" lon="-0.92606">
        <ele>138.5</ele>
        <time>2010-01-01T06:36:24Z</time>
      </trkpt>
      <trkpt lat="46.86098" lon="-0.92577">
        <ele>140.6</ele>
        <time>2010-01-01T06:36:29.780Z</time>
      </trkpt>
      <trkpt lat="46.86113" lon="-0.9256">
        <ele>141.1</ele>
        <time>2010-01-01T06:36:33.797Z</time>
      </trkpt>
      <trkpt lat="46.86147" lon="-0.92504">
        <ele>143</ele>
        <time>2010-01-01T06:36:44.858Z</time>
      </trkpt>
      <trkpt lat="46.86173" lon="-0.92464">
        <ele>143.4</ele>
        <time>2010-01-01T06:36:52.863Z</time>
      </trkpt>
      <trkpt lat="46.86194" lon="-0.92445">
        <ele>144</ele>
        <time>2010-01-01T06:36:58.203Z</time>
      </trkpt>
      <trkpt lat="46.86234" lon="-0.92419">
        <ele>143.6</ele>
        <time>2010-01-01T06:37:07.705Z</time>
      </trkpt>
      <trkpt lat="46.86245" lon="-0.92454">
        <ele>143.2</ele>
        <time>2010-01-01T06:37:13.374Z</time>
      </trkpt>
      <trkpt lat="46.86257" lon="-0.92501">
        <ele>142.7</ele>
        <time>2010-01-01T06:37:20.641Z</time>
      </trkpt>
      <trkpt lat="46.8626" lon="-0.92525">
        <ele>142.1</ele>
        <time>2010-01-01T06:37:24.269Z</time>
      </trkpt>
      <trkpt lat="46.86254" lon="-0.92554">
        <ele>142</ele>
        <time>2010-01-01T06:37:28.734Z</time>
      </trkpt>
      <trkpt lat="46.86247" lon="-0.92579">
        <ele>141.2</ele>
        <time>2010-01-01T06:37:32.755Z</time>
      </trkpt>
      <trkpt lat="46.86257" lon="-0.92599">
        <ele>140.9</ele>
        <time>2010-01-01T06:37:36.300Z</time>
      </trkpt>
      <trkpt lat="46.8626" lon="-0.92624">
        <ele>140.3</ele>
        <time>2010-01-01T06:37:40.006Z</time>
      </trkpt>
      <trkpt lat="46.86262" lon="-0.92647">
        <ele>140</ele>
        <time>2010-01-01T06:37:43.373Z</time>
      </trkpt>
      <trkpt lat="46.86267" lon="-0.92686">
        <ele>139.3</ele>
        <time>2010-01-01T06:37:49.300Z</time>
      </trkpt>
      <trkpt lat="46.86269" lon="-0.92711">
        <ele>138.8</ele>
        <time>2010-01-01T06:37:53Z</time>
      </trkpt>
      <trkpt lat="46.86271" lon="-0.92749">
        <ele>136.8</ele>
        <time>2010-01-01T06:38:03Z</time>
      </trkpt>
      <trkpt lat="46.86292" lon="-0.92777">
        <ele>137</ele>
        <time>2010-01-01T06:38:15.545Z</time>
      </trkpt>
      <trkpt lat="46.86314" lon="-0.92796">
        <ele>135.6</ele>
        <time>2010-01-01T06:38:27Z</time>
      </trkpt>
      <trkpt lat="46.8634" lon="-0.92813">
        <ele>133.6</ele>
        <time>2010-01-01T06:38:39Z</time>
      </trkpt>
      <trkpt lat="46.86379" lon="-0.92836">
        <ele>130.4</ele>
        <time>2010-01-01T06:38:53.921Z</time>
      </trkpt>
      <trkpt lat="46.86426" lon="-0.9286">
        <ele>126.8</ele>
        <time>2010-01-01T06:39:11.607Z</time>
      </trkpt>
      <trkpt lat="46.86488" lon="-0.92878">
        <ele>123.3</ele>
        <time>2010-01-01T06:39:34Z</time>
      </trkpt>
      <trkpt lat="46.86511" lon="-0.9288">
        <ele>122.4</ele>
        <time>2010-01-01T06:39:47Z</time>
      </trkpt>
      <trkpt lat="46.86565" lon="-0.92862">
        <ele>124</ele>
        <time>2010-01-01T06:40:13Z</time>
      </trkpt>
      <trkpt lat="46.86581" lon="-0.92859">
        <ele>121.9</ele>
        <time>2010-01-01T06:40:19.365Z</time>
      </trkpt>
      <trkpt lat="46.866" lon="-0.92858">
        <ele>125</ele>
        <time>2010-01-01T06:40:27Z</time>
      </trkpt>
      <trkpt lat="46.86621" lon="-0.92863">
        <ele>124.8</ele>
        <time>2010-01-01T06:40:36Z</time>
      </trkpt>
      <trkpt lat="46.86722" lon="-0.92892">
        <ele>128.8</ele>
        <time>2010-01-01T06:41:13.867Z</time>
      </trkpt>
      <trkpt lat="46.86752" lon="-0.92901">
        <ele>127.1</ele>
        <time>2010-01-01T06:41:25Z</time>
      </trkpt>
      <trkpt lat="46.86775" lon="-0.92901">
        <ele>126.8</ele>
        <time>2010-01-01T06:41:34Z</time>
      </trkpt>
      <trkpt lat="46.86806" lon="-0.92891">
        <ele>125</ele>
        <time>2010-01-01T06:41:52Z</time>
      </trkpt>
      <trkpt lat="46.86845" lon="-0.92862">
        <ele>126</ele>
        <time>2010-01-01T06:42:09Z</time>
      </trkpt>
      <trkpt lat="46.86863" lon="-0.92857">
        <ele>123.2</ele>
        <time>2010-01-01T06:42:21Z</time>
      </trkpt>
      <trkpt lat="46.86878" lon="-0.9287">
        <ele>123.8</ele>
        <time>2010-01-01T06:42:29.408Z</time>
      </trkpt>
      <trkpt lat="46.86882" lon="-0.92889">
        <ele>125</ele>
        <time>2010-01-01T06:42:36Z</time>
      </trkpt>
      <trkpt lat="46.86885" lon="-0.92907">
        <ele>125</ele>
        <time>2010-01-01T06:42:41Z</time>
      </trkpt>
      <trkpt lat="46.86889" lon="-0.9297">
        <ele>126.9</ele>
        <time>2010-01-01T06:42:57.265Z</time>
      </trkpt>
      <trkpt lat="46.8689" lon="-0.93068">
        <ele>129.5</ele>
        <time>2010-01-01T06:43:22.237Z</time>
      </trkpt>
      <trkpt lat="46.8689" lon="-0.93164">
        <ele>133.1</ele>
        <time>2010-01-01T06:43:47Z</time>
      </trkpt>
      <trkpt lat="46.86888" lon="-0.93231">
        <ele>134.3</ele>
        <time>2010-01-01T06:44:07.079Z</time>
      </trkpt>
      <trkpt lat="46.86881" lon="-0.93313">
        <ele>133.4</ele>
        <time>2010-01-01T06:44:32Z</time>
      </trkpt>
      <trkpt lat="46.86869" lon="-0.93412">
        <ele>129.8</ele>
        <time>2010-01-01T06:44:59Z</time>
      </trkpt>
      <trkpt lat="46.86873" lon="-0.93444">
        <ele>129.4</ele>
        <time>2010-01-01T06:45:07Z</time>
      </trkpt>
      <trkpt lat="46.86899" lon="-0.93574">
        <ele>124.6</ele>
        <time>2010-01-01T06:45:44.927Z</time>
      </trkpt>
      <trkpt lat="46.86908" lon="-0.93637">
        <ele>124.4</ele>
        <time>2010-01-01T06:46:03Z</time>
      </trkpt>
      <trkpt lat="46.86923" lon="-0.93724">
        <ele>125.5</ele>
        <time>2010-01-01T06:46:28.460Z</time>
      </trkpt>
      <trkpt lat="46.8693" lon="-0.93783">
        <ele>126.5</ele>
        <time>2010-01-01T06:46:45.619Z</time>
      </trkpt>
      <trkpt lat="46.86935" lon="-0.93842">
        <ele>126.5</ele>
        <time>2010-01-01T06:47:02.626Z</time>
      </trkpt>
      <trkpt lat="46.86938" lon="-0.93868">
        <ele>127.3</ele>
        <time>2010-01-01T06:47:10Z</time>
      </trkpt>
      <trkpt lat="46.86945" lon="-0.93908">
        <ele>128</ele>
        <time>2010-01-01T06:47:17Z</time>
      </trkpt>
      <trkpt lat="46.86973" lon="-0.93988">
        <ele>130</ele>
        <time>2010-01-01T06:47:44Z</time>
      </trkpt>
      <trkpt lat="46.87035" lon="-0.9411">
        <ele>126.8</ele>
        <time>2010-01-01T06:48:26.068Z</time>
      </trkpt>
      <trkpt lat="46.87075" lon="-0.94186">
        <ele>123.4</ele>
        <time>2010-01-01T06:48:52.463Z</time>
      </trkpt>
      <trkpt lat="46.87115" lon="-0.94265">
        <ele>122.5</ele>
        <time>2010-01-01T06:49:19.792Z</time>
      </trkpt>
      <trkpt lat="46.87147" lon="-0.94316">
        <ele>123</ele>
        <time>2010-01-01T06:49:39Z</time>
      </trkpt>
      <trkpt lat="46.87203" lon="-0.94382">
        <ele>126.3</ele>
        <time>2010-01-01T06:50:06.757Z</time>
      </trkpt>
      <trkpt lat="46.87251" lon="-0.94429">
        <ele>128.1</ele>
        <time>2010-01-01T06:50:29.253Z</time>
      </trkpt>
      <trkpt lat="46.87284" lon="-0.94463">
        <ele>128</ele>
        <time>2010-01-01T06:50:45Z</time>
      </trkpt>
      <trkpt lat="46.87273" lon="-0.94518">
        <ele>124.4</ele>
        <time>2010-01-01T06:51:02Z</time>
      </trkpt>
      <trkpt lat="46.87257" lon="-0.94597">
        <ele>121.5</ele>
        <time>2010-01-01T06:51:23.276Z</time>
      </trkpt>
      <trkpt lat="46.8724" lon="-0.9469">
        <ele>124</ele>
        <time>2010-01-01T06:51:48.060Z</time>
      </trkpt>
      <trkpt lat="46.87206" lon="-0.94868">
        <ele>132.2</ele>
        <time>2010-01-01T06:52:36Z</time>
      </trkpt>
      <trkpt lat="46.87198" lon="-0.9495">
        <ele>136.4</ele>
        <time>2010-01-01T06:53:02Z</time>
      </trkpt>
      <trkpt lat="46.87199" lon="-0.95022">
        <ele>139.3</ele>
        <time>2010-01-01T06:53:22Z</time>
      </trkpt>
      <trkpt lat="46.87208" lon="-0.95094">
        <ele>143</ele>
        <time>2010-01-01T06:53:41Z</time>
      </trkpt>
      <trkpt lat="46.87224" lon="-0.95159">
        <ele>146</ele>
        <time>2010-01-01T06:54:00Z</time>
      </trkpt>
      <trkpt lat="46.87231" lon="-0.95185">
        <ele>147.9</ele>
        <time>2010-01-01T06:54:06.691Z</time>
      </trkpt>
      <trkpt lat="46.87254" lon="-0.95246">
        <ele>149.3</ele>
        <time>2010-01-01T06:54:22.988Z</time>
      </trkpt>
      <trkpt lat="46.87271" lon="-0.95291">
        <ele>150.9</ele>
        <time>2010-01-01T06:54:35.247Z</time>
      </trkpt>
      <trkpt lat="46.87291" lon="-0.95353">
        <ele>153</ele>
        <time>2010-01-01T06:54:51.451Z</time>
      </trkpt>
      <trkpt lat="46.87301" lon="-0.9539">
        <ele>154.4</ele>
        <time>2010-01-01T06:55:01Z</time>
      </trkpt>
      <trkpt lat="46.87306" lon="-0.95431">
        <ele>154.1</ele>
        <time>2010-01-01T06:55:14Z</time>
      </trkpt>
      <trkpt lat="46.87312" lon="-0.9548">
        <ele>154.4</ele>
        <time>2010-01-01T06:55:32.830Z</time>
      </trkpt>
      <trkpt lat="46.87313" lon="-0.95533">
        <ele>153.1</ele>
        <time>2010-01-01T06:55:53Z</time>
      </trkpt>
      <trkpt lat="46.87304" lon="-0.9564">
        <ele>150.8</ele>
        <time>2010-01-01T06:56:22.682Z</time>
      </trkpt>
      <trkpt lat="46.87298" lon="-0.95713">
        <ele>148.7</ele>
        <time>2010-01-01T06:56:43Z</time>
      </trkpt>
      <trkpt lat="46.87291" lon="-0.95787">
        <ele>150.1</ele>
        <time>2010-01-01T06:57:01.654Z</time>
      </trkpt>
      <trkpt lat="46.87285" lon="-0.95878">
        <ele>149.8</ele>
        <time>2010-01-01T06:57:24.721Z</time>
      </trkpt>
      <trkpt lat="46.87275" lon="-0.95962">
        <ele>147.6</ele>
        <time>2010-01-01T06:57:46.154Z</time>
      </trkpt>
      <trkpt lat="46.87256" lon="-0.96036">
        <ele>146.3</ele>
        <time>2010-01-01T06:58:06Z</time>
      </trkpt>
      <trkpt lat="46.87228" lon="-0.96111">
        <ele>144.4</ele>
        <time>2010-01-01T06:58:31.465Z</time>
      </trkpt>
      <trkpt lat="46.8719" lon="-0.9621">
        <ele>142.7</ele>
        <time>2010-01-01T06:59:05.841Z</time>
      </trkpt>
      <trkpt lat="46.87162" lon="-0.96281">
        <ele>143</ele>
        <time>2010-01-01T06:59:30.276Z</time>
      </trkpt>
      <trkpt lat="46.87126" lon="-0.96373">
        <ele>143.2</ele>
        <time>2010-01-01T07:00:02Z</time>
      </trkpt>
      <trkpt lat="46.87101" lon="-0.96436">
        <ele>143.4</ele>
        <time>2010-01-01T07:00:19Z</time>
      </trkpt>
      <trkpt lat="46.87069" lon="-0.96518">
        <ele>143.5</ele>
        <time>2010-01-01T07:00:45.021Z</time>
      </trkpt>
      <trkpt lat="46.8704" lon="-0.96615">
        <ele>143</ele>
        <time>2010-01-01T07:01:14Z</time>
      </trkpt>
      <trkpt lat="46.87019" lon="-0.96705">
        <ele>144.4</ele>
        <time>2010-01-01T07:01:34Z</time>
      </trkpt>
      <trkpt lat="46.8701" lon="-0.96699">
        <ele>143.7</ele>
        <time>2010-01-01T07:01:38.115Z</time>
      </trkpt>
      <trkpt lat="46.86998" lon="-0.96689">
        <ele>142.9</ele>
        <time>2010-01-01T07:01:43.298Z</time>
      </trkpt>
      <trkpt lat="46.86987" lon="-0.96683">
        <ele>142.5</ele>
        <time>2010-01-01T07:01:48.218Z</time>
      </trkpt>
      <trkpt lat="46.86974" lon="-0.96684">
        <ele>142.1</ele>
        <time>2010-01-01T07:01:53.254Z</time>
      </trkpt>
      <trkpt lat="46.86948" lon="-0.96689">
        <ele>141.1</ele>
        <time>2010-01-01T07:02:03.654Z</time>
      </trkpt>
      <trkpt lat="46.86919" lon="-0.96701">
        <ele>140.3</ele>
        <time>2010-01-01T07:02:15.515Z</time>
      </trkpt>
      <trkpt lat="46.86882" lon="-0.96726">
        <ele>138.5</ele>
        <time>2010-01-01T07:02:31.843Z</time>
      </trkpt>
      <trkpt lat="46.86848" lon="-0.9675">
        <ele>137.5</ele>
        <time>2010-01-01T07:02:46.728Z</time>
      </trkpt>
      <trkpt lat="46.86828" lon="-0.9676">
        <ele>136.9</ele>
        <time>2010-01-01T07:02:55Z</time>
      </trkpt>
      <trkpt lat="46.86807" lon="-0.96764">
        <ele>136.5</ele>
        <time>2010-01-01T07:03:03Z</time>
      </trkpt>
      <trkpt lat="46.86778" lon="-0.96766">
        <ele>136.6</ele>
        <time>2010-01-01T07:03:14.541Z</time>
      </trkpt>
      <trkpt lat="46.86757" lon="-0.9677">
        <ele>136.5</ele>
        <time>2010-01-01T07:03:23.013Z</time>
      </trkpt>
      <trkpt lat="46.86731" lon="-0.9678">
        <ele>136.4</ele>
        <time>2010-01-01T07:03:33.732Z</time>
      </trkpt>
      <trkpt lat="46.8671" lon="-0.9679">
        <ele>136.4</ele>
        <time>2010-01-01T07:03:42.810Z</time>
      </trkpt>
      <trkpt lat="46.86687" lon="-0.96807">
        <ele>137.6</ele>
        <time>2010-01-01T07:03:53.251Z</time>
      </trkpt>
      <trkpt lat="46.86668" lon="-0.96829">
        <ele>138.9</ele>
        <time>2010-01-01T07:04:02.745Z</time>
      </trkpt>
      <trkpt lat="46.86648" lon="-0.96852">
        <ele>141.2</ele>
        <time>2010-01-01T07:04:12.965Z</time>
      </trkpt>
      <trkpt lat="46.86619" lon="-0.96879">
        <ele>145.2</ele>
        <time>2010-01-01T07:04:26.794Z</time>
      </trkpt>
      <trkpt lat="46.86602" lon="-0.9689">
        <ele>146.3</ele>
        <time>2010-01-01T07:04:34.219Z</time>
      </trkpt>
      <trkpt lat="46.86577" lon="-0.96913">
        <ele>147</ele>
        <time>2010-01-01T07:04:46.092Z</time>
      </trkpt>
      <trkpt lat="46.8656" lon="-0.96933">
        <ele>147.5</ele>
        <time>2010-01-01T07:04:54.631Z</time>
      </trkpt>
      <trkpt lat="46.86545" lon="-0.96959">
        <ele>147.6</ele>
        <time>2010-01-01T07:05:03.909Z</time>
      </trkpt>
      <trkpt lat="46.86525" lon="-0.96981">
        <ele>146.9</ele>
        <time>2010-01-01T07:05:14.130Z</time>
      </trkpt>
      <trkpt lat="46.86485" lon="-0.97014">
        <ele>146.2</ele>
        <time>2010-01-01T07:05:32.635Z</time>
      </trkpt>
      <trkpt lat="46.86447" lon="-0.97049">
        <ele>145.1</ele>
        <time>2010-01-01T07:05:50.582Z</time>
      </trkpt>
      <trkpt lat="46.86412" lon="-0.97083">
        <ele>143.8</ele>
        <time>2010-01-01T07:06:07.301Z</time>
      </trkpt>
      <trkpt lat="46.8637" lon="-0.97124">
        <ele>142.7</ele>
        <time>2010-01-01T07:06:27.645Z</time>
      </trkpt>
      <trkpt lat="46.86358" lon="-0.97134">
        <ele>142.1</ele>
        <time>2010-01-01T07:06:33Z</time>
      </trkpt>
      <trkpt lat="46.86345" lon="-0.97137">
        <ele>141.5</ele>
        <time>2010-01-01T07:06:38.513Z</time>
      </trkpt>
      <trkpt lat="46.86306" lon="-0.9714">
        <ele>141</ele>
        <time>2010-01-01T07:06:54.257Z</time>
      </trkpt>
      <trkpt lat="46.86285" lon="-0.97143">
        <ele>141</ele>
        <time>2010-01-01T07:07:03Z</time>
      </trkpt>
      <trkpt lat="46.86273" lon="-0.97148">
        <ele>141</ele>
        <time>2010-01-01T07:07:06.990Z</time>
      </trkpt>
      <trkpt lat="46.86267" lon="-0.97157">
        <ele>141</ele>
        <time>2010-01-01T07:07:09.762Z</time>
      </trkpt>
      <trkpt lat="46.86267" lon="-0.97163">
        <ele>141</ele>
        <time>2010-01-01T07:07:11.061Z</time>
      </trkpt>
      <trkpt lat="46.86275" lon="-0.97174">
        <ele>141</ele>
        <time>2010-01-01T07:07:14.742Z</time>
      </trkpt>
      <trkpt lat="46.8628" lon="-0.97188">
        <ele>141</ele>
        <time>2010-01-01T07:07:18.385Z</time>
      </trkpt>
      <trkpt lat="46.86281" lon="-0.97204">
        <ele>140.6</ele>
        <time>2010-01-01T07:07:22.078Z</time>
      </trkpt>
      <trkpt lat="46.86275" lon="-0.97227">
        <ele>139.9</ele>
        <time>2010-01-01T07:07:27.684Z</time>
      </trkpt>
      <trkpt lat="46.86264" lon="-0.9724">
        <ele>139.7</ele>
        <time>2010-01-01T07:07:32.437Z</time>
      </trkpt>
      <trkpt lat="46.86249" lon="-0.97242">
        <ele>140</ele>
        <time>2010-01-01T07:07:37.382Z</time>
      </trkpt>
      <trkpt lat="46.86234" lon="-0.97233">
        <ele>139.4</ele>
        <time>2010-01-01T07:07:42.673Z</time>
      </trkpt>
      <trkpt lat="46.86225" lon="-0.97214">
        <ele>139.4</ele>
        <time>2010-01-01T07:07:47.905Z</time>
      </trkpt>
      <trkpt lat="46.86223" lon="-0.97192">
        <ele>140.1</ele>
        <time>2010-01-01T07:07:53.032Z</time>
      </trkpt>
      <trkpt lat="46.86211" lon="-0.97192">
        <ele>139.6</ele>
        <time>2010-01-01T07:07:57.319Z</time>
      </trkpt>
      <trkpt lat="46.862" lon="-0.97198">
        <ele>139.2</ele>
        <time>2010-01-01T07:08:01.192Z</time>
      </trkpt>
      <trkpt lat="46.86195" lon="-0.97215">
        <ele>139</ele>
        <time>2010-01-01T07:08:05.321Z</time>
      </trkpt>
      <trkpt lat="46.86187" lon="-0.97245">
        <ele>138.1</ele>
        <time>2010-01-01T07:08:12.726Z</time>
      </trkpt>
      <trkpt lat="46.86178" lon="-0.97263">
        <ele>138</ele>
        <time>2010-01-01T07:08:17.835Z</time>
      </trkpt>
      <trkpt lat="46.86154" lon="-0.97291">
        <ele>137.3</ele>
        <time>2010-01-01T07:08:28.148Z</time>
      </trkpt>
      <trkpt lat="46.86122" lon="-0.97333">
        <ele>137</ele>
        <time>2010-01-01T07:08:42.559Z</time>
      </trkpt>
      <trkpt lat="46.8608" lon="-0.97377">
        <ele>135.4</ele>
        <time>2010-01-01T07:08:59.735Z</time>
      </trkpt>
      <trkpt lat="46.86038" lon="-0.97421">
        <ele>134.3</ele>
        <time>2010-01-01T07:09:17.068Z</time>
      </trkpt>
      <trkpt lat="46.86009" lon="-0.97453">
        <ele>133.3</ele>
        <time>2010-01-01T07:09:29.027Z</time>
      </trkpt>
      <trkpt lat="46.85987" lon="-0.97483">
        <ele>133</ele>
        <time>2010-01-01T07:09:39Z</time>
      </trkpt>
      <trkpt lat="46.85957" lon="-0.97516">
        <ele>133</ele>
        <time>2010-01-01T07:09:54.125Z</time>
      </trkpt>
      <trkpt lat="46.8592" lon="-0.97549">
        <ele>132.2</ele>
        <time>2010-01-01T07:10:11.034Z</time>
      </trkpt>
      <trkpt lat="46.8589" lon="-0.97577">
        <ele>132</ele>
        <time>2010-01-01T07:10:24.883Z</time>
      </trkpt>
      <trkpt lat="46.85834" lon="-0.97625">
        <ele>130</ele>
        <time>2010-01-01T07:10:50.355Z</time>
      </trkpt>
      <trkpt lat="46.85792" lon="-0.9766">
        <ele>128.5</ele>
        <time>2010-01-01T07:11:09.553Z</time>
      </trkpt>
      <trkpt lat="46.8575" lon="-0.97692">
        <ele>127.9</ele>
        <time>2010-01-01T07:11:27.949Z</time>
      </trkpt>
      <trkpt lat="46.85712" lon="-0.97723">
        <ele>128</ele>
        <time>2010-01-01T07:11:45Z</time>
      </trkpt>
      <trkpt lat="46.85695" lon="-0.97741">
        <ele>128</ele>
        <time>2010-01-01T07:11:54.538Z</time>
      </trkpt>
      <trkpt lat="46.85655" lon="-0.97792">
        <ele>128</ele>
        <time>2010-01-01T07:12:19Z</time>
      </trkpt>
      <trkpt lat="46.8561" lon="-0.97858">
        <ele>128</ele>
        <time>2010-01-01T07:12:42Z</time>
      </trkpt>
      <trkpt lat="46.85555" lon="-0.97932">
        <ele>127</ele>
        <time>2010-01-01T07:13:11.373Z</time>
      </trkpt>
      <trkpt lat="46.85545" lon="-0.97939">
        <ele>127</ele>
        <time>2010-01-01T07:13:16Z</time>
      </trkpt>
      <trkpt lat="46.85529" lon="-0.97951">
        <ele>127</ele>
        <time>2010-01-01T07:13:23.082Z</time>
      </trkpt>
      <trkpt lat="46.85499" lon="-0.97986">
        <ele>127.5</ele>
        <time>2010-01-01T07:13:38.364Z</time>
      </trkpt>
      <trkpt lat="46.85465" lon="-0.9802">
        <ele>127.1</ele>
        <time>2010-01-01T07:13:54.895Z</time>
      </trkpt>
      <trkpt lat="46.85436" lon="-0.98047">
        <ele>127.3</ele>
        <time>2010-01-01T07:14:09Z</time>
      </trkpt>
      <trkpt lat="46.85393" lon="-0.98089">
        <ele>128</ele>
        <time>2010-01-01T07:14:29Z</time>
      </trkpt>
      <trkpt lat="46.85358" lon="-0.98123">
        <ele>127.2</ele>
        <time>2010-01-01T07:14:47.549Z</time>
      </trkpt>
      <trkpt lat="46.85317" lon="-0.98172">
        <ele>126.5</ele>
        <time>2010-01-01T07:15:10.778Z</time>
      </trkpt>
      <trkpt lat="46.85253" lon="-0.98247">
        <ele>125.1</ele>
        <time>2010-01-01T07:15:47.042Z</time>
      </trkpt>
      <trkpt lat="46.85206" lon="-0.98312">
        <ele>124.3</ele>
        <time>2010-01-01T07:16:15.665Z</time>
      </trkpt>
      <trkpt lat="46.8515" lon="-0.98405">
        <ele>123.4</ele>
        <time>2010-01-01T07:16:52.964Z</time>
      </trkpt>
      <trkpt lat="46.85095" lon="-0.98513">
        <ele>122</ele>
        <time>2010-01-01T07:17:33.643Z</time>
      </trkpt>
      <trkpt lat="46.85066" lon="-0.98566">
        <ele>121.3</ele>
        <time>2010-01-01T07:17:54.087Z</time>
      </trkpt>
      <trkpt lat="46.85056" lon="-0.98571">
        <ele>120.1</ele>
        <time>2010-01-01T07:17:58.788Z</time>
      </trkpt>
      <trkpt lat="46.85037" lon="-0.98575">
        <ele>120.2</ele>
        <time>2010-01-01T07:18:07.279Z</time>
      </trkpt>
      <trkpt lat="46.85028" lon="-0.98583">
        <ele>120</ele>
        <time>2010-01-01T07:18:12Z</time>
      </trkpt>
      <trkpt lat="46.85002" lon="-0.98613">
        <ele>119.8</ele>
        <time>2010-01-01T07:18:27.044Z</time>
      </trkpt>
      <trkpt lat="46.84998" lon="-0.9863">
        <ele>119.4</ele>
        <time>2010-01-01T07:18:32.820Z</time>
      </trkpt>
      <trkpt lat="46.84998" lon="-0.98649">
        <ele>120.1</ele>
        <time>2010-01-01T07:18:38.904Z</time>
      </trkpt>
      <trkpt lat="46.84991" lon="-0.98658">
        <ele>120.7</ele>
        <time>2010-01-01T07:18:42.978Z</time>
      </trkpt>
      <trkpt lat="46.84938" lon="-0.98692">
        <ele>121</ele>
        <time>2010-01-01T07:19:09.918Z</time>
      </trkpt>
      <trkpt lat="46.84901" lon="-0.98704">
        <ele>121.7</ele>
        <time>2010-01-01T07:19:27.222Z</time>
      </trkpt>
      <trkpt lat="46.84881" lon="-0.98694">
        <ele>121.6</ele>
        <time>2010-01-01T07:19:37.058Z</time>
      </trkpt>
      <trkpt lat="46.84862" lon="-0.98689">
        <ele>122.7</ele>
        <time>2010-01-01T07:19:45.615Z</time>
      </trkpt>
      <trkpt lat="46.84862" lon="-0.98697">
        <ele>122.9</ele>
        <time>2010-01-01T07:19:48.150Z</time>
      </trkpt>
      <trkpt lat="46.84872" lon="-0.98714">
        <ele>122.8</ele>
        <time>2010-01-01T07:19:55.118Z</time>
      </trkpt>
      <trkpt lat="46.84879" lon="-0.98724">
        <ele>123</ele>
        <time>2010-01-01T07:19:59.542Z</time>
      </trkpt>
      <trkpt lat="46.84883" lon="-0.98742">
        <ele>123.2</ele>
        <time>2010-01-01T07:20:05.532Z</time>
      </trkpt>
      <trkpt lat="46.84879" lon="-0.98758">
        <ele>123.1</ele>
        <time>2010-01-01T07:20:10.735Z</time>
      </trkpt>
      <trkpt lat="46.84872" lon="-0.9877">
        <ele>122.9</ele>
        <time>2010-01-01T07:20:15.762Z</time>
      </trkpt>
      <trkpt lat="46.84855" lon="-0.98786">
        <ele>123</ele>
        <time>2010-01-01T07:20:25Z</time>
      </trkpt>
      <trkpt lat="46.84856" lon="-0.9882">
        <ele>122.6</ele>
        <time>2010-01-01T07:20:35.324Z</time>
      </trkpt>
      <trkpt lat="46.84862" lon="-0.98879">
        <ele>121.3</ele>
        <time>2010-01-01T07:20:54Z</time>
      </trkpt>
      <trkpt lat="46.8486" lon="-0.98905">
        <ele>121.6</ele>
        <time>2010-01-01T07:21:05Z</time>
      </trkpt>
      <trkpt lat="46.84849" lon="-0.98918">
        <ele>122</ele>
        <time>2010-01-01T07:21:10.599Z</time>
      </trkpt>
      <trkpt lat="46.84822" lon="-0.98927">
        <ele>122.4</ele>
        <time>2010-01-01T07:21:21Z</time>
      </trkpt>
      <trkpt lat="46.8478" lon="-0.98944">
        <ele>123.9</ele>
        <time>2010-01-01T07:21:37.713Z</time>
      </trkpt>
      <trkpt lat="46.84745" lon="-0.9897">
        <ele>123</ele>
        <time>2010-01-01T07:21:52.413Z</time>
      </trkpt>
      <trkpt lat="46.84674" lon="-0.9902">
        <ele>121.8</ele>
        <time>2010-01-01T07:22:22Z</time>
      </trkpt>
      <trkpt lat="46.84603" lon="-0.99064">
        <ele>120.7</ele>
        <time>2010-01-01T07:23:01Z</time>
      </trkpt>
      <trkpt lat="46.84596" lon="-0.9908">
        <ele>120.5</ele>
        <time>2010-01-01T07:23:05.914Z</time>
      </trkpt>
      <trkpt lat="46.84624" lon="-0.99133">
        <ele>119.2</ele>
        <time>2010-01-01T07:23:24Z</time>
      </trkpt>
      <trkpt lat="46.84653" lon="-0.99195">
        <ele>119.5</ele>
        <time>2010-01-01T07:23:37Z</time>
      </trkpt>
      <trkpt lat="46.84666" lon="-0.99253">
        <ele>119.9</ele>
        <time>2010-01-01T07:23:59.352Z</time>
      </trkpt>
      <trkpt lat="46.8469" lon="-0.99338">
        <ele>119.6</ele>
        <time>2010-01-01T07:24:33Z</time>
      </trkpt>
      <trkpt lat="46.84707" lon="-0.99381">
        <ele>118</ele>
        <time>2010-01-01T07:24:46Z</time>
      </trkpt>
      <trkpt lat="46.84734" lon="-0.99415">
        <ele>119.5</ele>
        <time>2010-01-01T07:24:59.778Z</time>
      </trkpt>
      <trkpt lat="46.84771" lon="-0.99452">
        <ele>119.6</ele>
        <time>2010-01-01T07:25:17.379Z</time>
      </trkpt>
      <trkpt lat="46.84789" lon="-0.99475">
        <ele>119</ele>
        <time>2010-01-01T07:25:27.107Z</time>
      </trkpt>
      <trkpt lat="46.84832" lon="-0.99549">
        <ele>118</ele>
        <time>2010-01-01T07:25:53Z</time>
      </trkpt>
      <trkpt lat="46.849" lon="-0.99674">
        <ele>117.3</ele>
        <time>2010-01-01T07:26:39Z</time>
      </trkpt>
      <trkpt lat="46.84933" lon="-0.99741">
        <ele>117</ele>
        <time>2010-01-01T07:27:01Z</time>
      </trkpt>
      <trkpt lat="46.8496" lon="-0.99822">
        <ele>117</ele>
        <time>2010-01-01T07:27:22.149Z</time>
      </trkpt>
      <trkpt lat="46.84968" lon="-0.99863">
        <ele>116.2</ele>
        <time>2010-01-01T07:27:32Z</time>
      </trkpt>
      <trkpt lat="46.84968" lon="-0.999">
        <ele>116.1</ele>
        <time>2010-01-01T07:27:42.956Z</time>
      </trkpt>
      <trkpt lat="46.84963" lon="-0.99957">
        <ele>115.3</ele>
        <time>2010-01-01T07:27:59.929Z</time>
      </trkpt>
      <trkpt lat="46.84964" lon="-1.00065">
        <ele>114.3</ele>
        <time>2010-01-01T07:28:32Z</time>
      </trkpt>
      <trkpt lat="46.84972" lon="-1.00118">
        <ele>114</ele>
        <time>2010-01-01T07:28:46Z</time>
      </trkpt>
      <trkpt lat="46.85005" lon="-1.00234">
        <ele>113</ele>
        <time>2010-01-01T07:29:20.394Z</time>
      </trkpt>
      <trkpt lat="46.85013" lon="-1.00263">
        <ele>113</ele>
        <time>2010-01-01T07:29:28.986Z</time>
      </trkpt>
      <trkpt lat="46.85032" lon="-1.00304">
        <ele>112</ele>
        <time>2010-01-01T07:29:42.386Z</time>
      </trkpt>
      <trkpt lat="46.85078" lon="-1.00407">
        <ele>112</ele>
        <time>2010-01-01T07:30:16Z</time>
      </trkpt>
      <trkpt lat="46.85079" lon="-1.00417">
        <ele>111</ele>
        <time>2010-01-01T07:30:19.655Z</time>
      </trkpt>
      <trkpt lat="46.85082" lon="-1.00424">
        <ele>111</ele>
        <time>2010-01-01T07:30:22.763Z</time>
      </trkpt>
      <trkpt lat="46.85101" lon="-1.00435">
        <ele>110.6</ele>
        <time>2010-01-01T07:30:34Z</time>
      </trkpt>
      <trkpt lat="46.8518" lon="-1.00494">
        <ele>108.5</ele>
        <time>2010-01-01T07:31:08Z</time>
      </trkpt>
      <trkpt lat="46.85237" lon="-1.00538">
        <ele>110</ele>
        <time>2010-01-01T07:31:32Z</time>
      </trkpt>
      <trkpt lat="46.85265" lon="-1.00555">
        <ele>111</ele>
        <time>2010-01-01T07:31:44Z</time>
      </trkpt>
      <trkpt lat="46.85291" lon="-1.00572">
        <ele>109</ele>
        <time>2010-01-01T07:31:55.327Z</time>
      </trkpt>
      <trkpt lat="46.85341" lon="-1.00584">
        <ele>108</ele>
        <time>2010-01-01T07:32:15.454Z</time>
      </trkpt>
      <trkpt lat="46.85407" lon="-1.00613">
        <ele>107</ele>
        <time>2010-01-01T07:32:43Z</time>
      </trkpt>
      <trkpt lat="46.85478" lon="-1.00648">
        <ele>109</ele>
        <time>2010-01-01T07:33:13Z</time>
      </trkpt>
      <trkpt lat="46.85502" lon="-1.00665">
        <ele>107.1</ele>
        <time>2010-01-01T07:33:23.535Z</time>
      </trkpt>
      <trkpt lat="46.85579" lon="-1.00722">
        <ele>109</ele>
        <time>2010-01-01T07:33:58Z</time>
      </trkpt>
      <trkpt lat="46.85679" lon="-1.00818">
        <ele>111</ele>
        <time>2010-01-01T07:34:46.890Z</time>
      </trkpt>
      <trkpt lat="46.8573" lon="-1.0085">
        <ele>112</ele>
        <time>2010-01-01T07:35:10Z</time>
      </trkpt>
      <trkpt lat="46.85829" lon="-1.00908">
        <ele>112</ele>
        <time>2010-01-01T07:35:50.597Z</time>
      </trkpt>
      <trkpt lat="46.85851" lon="-1.00911">
        <ele>114</ele>
        <time>2010-01-01T07:35:59Z</time>
      </trkpt>
      <trkpt lat="46.8586" lon="-1.00905">
        <ele>114</ele>
        <time>2010-01-01T07:36:03Z</time>
      </trkpt>
      <trkpt lat="46.85864" lon="-1.00918">
        <ele>115</ele>
        <time>2010-01-01T07:36:07Z</time>
      </trkpt>
      <trkpt lat="46.85874" lon="-1.00937">
        <ele>112.5</ele>
        <time>2010-01-01T07:36:13.591Z</time>
      </trkpt>
      <trkpt lat="46.85901" lon="-1.00954">
        <ele>113</ele>
        <time>2010-01-01T07:36:24.847Z</time>
      </trkpt>
      <trkpt lat="46.85945" lon="-1.00972">
        <ele>113</ele>
        <time>2010-01-01T07:36:43Z</time>
      </trkpt>
      <trkpt lat="46.85983" lon="-1.00912">
        <ele>113</ele>
        <time>2010-01-01T07:37:05Z</time>
      </trkpt>
      <trkpt lat="46.86051" lon="-1.00812">
        <ele>115</ele>
        <time>2010-01-01T07:37:44Z</time>
      </trkpt>
      <trkpt lat="46.86119" lon="-1.00743">
        <ele>116</ele>
        <time>2010-01-01T07:38:17Z</time>
      </trkpt>
      <trkpt lat="46.86145" lon="-1.00726">
        <ele>116</ele>
        <time>2010-01-01T07:38:29Z</time>
      </trkpt>
      <trkpt lat="46.86175" lon="-1.00707">
        <ele>115.6</ele>
        <time>2010-01-01T07:38:44Z</time>
      </trkpt>
      <trkpt lat="46.86234" lon="-1.00679">
        <ele>118</ele>
        <time>2010-01-01T07:39:06Z</time>
      </trkpt>
      <trkpt lat="46.86266" lon="-1.00663">
        <ele>117.1</ele>
        <time>2010-01-01T07:39:17.196Z</time>
      </trkpt>
      <trkpt lat="46.8629" lon="-1.0065">
        <ele>117.6</ele>
        <time>2010-01-01T07:39:26Z</time>
      </trkpt>
      <trkpt lat="46.86304" lon="-1.00639">
        <ele>120</ele>
        <time>2010-01-01T07:39:36Z</time>
      </trkpt>
      <trkpt lat="46.8635" lon="-1.00599">
        <ele>118.9</ele>
        <time>2010-01-01T07:39:51Z</time>
      </trkpt>
      <trkpt lat="46.86353" lon="-1.00595">
        <ele>119</ele>
        <time>2010-01-01T00:01:46Z</time>
      </trkpt>
    </trkseg>
  </trk>
</gpx>